Observation data for Palo Duro Canyon State Park Rim on 12/09/2018      Previous  Date       Current Mesonet Observations  Soil Data  Daily Summary Page  Observations in Plain Language
KPD1 090600Z 25006KT M05/M09 A3031 RMK A01 T10491085  RH  076%=      5-min Rain = 0
KPD1 090601Z 26006KT M05/M08 A3031 RMK A01 T10491084  RH  076%=      5-min Rain = 0
KPD1 090602Z 26006KT M05/M08 A3031 RMK A01 T10491084  RH  076%=      5-min Rain = 0
KPD1 090603Z 26006KT M05/M08 A3031 RMK A01 T10481084  RH  076%=      5-min Rain = 0
KPD1 090604Z 26007KT M05/M08 A3031 RMK A01 T10481084  RH  076%=      5-min Rain = 0
KPD1 090605Z 26007KT M05/M08 A3031 RMK A01 T10481084  RH  076%=      5-min Rain = 0
KPD1 090606Z 26007KT M05/M08 A3031 RMK A01 T10481083  RH  076%=      5-min Rain = 0
KPD1 090607Z 26007KT M05/M08 A3031 RMK A01 T10481083  RH  077%=      5-min Rain = 0
KPD1 090608Z 27007KT M05/M08 A3031 RMK A01 T10471082  RH  077%=      5-min Rain = 0
KPD1 090609Z 27007KT M05/M08 A3031 RMK A01 T10471080  RH  077%=      5-min Rain = 0
KPD1 090610Z 26007KT M05/M08 A3031 RMK A01 T10461079  RH  078%=      5-min Rain = 0
KPD1 090611Z 27006KT M05/M08 A3031 RMK A01 T10451077  RH  078%=      5-min Rain = 0
KPD1 090612Z 27006KT M04/M08 A3031 RMK A01 T10441076  RH  078%=      5-min Rain = 0
KPD1 090613Z 27006KT M04/M08 A3031 RMK A01 T10441076  RH  078%=      5-min Rain = 0
KPD1 090614Z 27006KT M04/M08 A3031 RMK A01 T10431076  RH  078%=      5-min Rain = 0
KPD1 090615Z 26006KT M04/M08 A3031 RMK A01 T10431076  RH  078%=      5-min Rain = 0
KPD1 090616Z 26006KT M04/M08 A3031 RMK A01 T10431076  RH  078%=      5-min Rain = 0
KPD1 090617Z 26006KT M04/M08 A3031 RMK A01 T10431077  RH  078%=      5-min Rain = 0
KPD1 090618Z 26006KT M04/M08 A3031 RMK A01 T10431076  RH  078%=      5-min Rain = 0
KPD1 090619Z 26006KT M04/M08 A3031 RMK A01 T10421076  RH  078%=      5-min Rain = 0
KPD1 090620Z 26006KT M04/M08 A3031 RMK A01 T10421075  RH  077%=      5-min Rain = 0
KPD1 090621Z 27006KT M04/M08 A3031 RMK A01 T10411075  RH  077%=      5-min Rain = 0
KPD1 090622Z 27006KT M04/M08 A3031 RMK A01 T10411075  RH  077%=      5-min Rain = 0
KPD1 090623Z 27007KT M04/M08 A3031 RMK A01 T10411075  RH  077%=      5-min Rain = 0
KPD1 090624Z 27007KT M04/M08 A3031 RMK A01 T10411076  RH  077%=      5-min Rain = 0
KPD1 090625Z 28007KT M04/M08 A3031 RMK A01 T10411075  RH  077%=      5-min Rain = 0
KPD1 090626Z 28007KT M04/M08 A3031 RMK A01 T10411075  RH  077%=      5-min Rain = 0
KPD1 090627Z 28007KT M04/M07 A3031 RMK A01 T10421074  RH  078%=      5-min Rain = 0
KPD1 090628Z 28007KT M04/M07 A3031 RMK A01 T10411073  RH  079%=      5-min Rain = 0
KPD1 090629Z 27008KT M04/M07 A3031 RMK A01 T10411070  RH  080%=      5-min Rain = 0
KPD1 090630Z 28008KT M04/M07 A3031 RMK A01 T10411069  RH  081%=      5-min Rain = 0
KPD1 090631Z 27008KT M04/M07 A3031 RMK A01 T10411068  RH  081%=      5-min Rain = 0
KPD1 090632Z 27008KT M04/M07 A3031 RMK A01 T10411067  RH  082%=      5-min Rain = 0
KPD1 090633Z 28008KT M04/M07 A3031 RMK A01 T10401066  RH  082%=      5-min Rain = 0
KPD1 090634Z 28008KT M04/M07 A3031 RMK A01 T10401066  RH  082%=      5-min Rain = 0
KPD1 090635Z 28007KT M04/M07 A3031 RMK A01 T10401065  RH  082%=      5-min Rain = 0
KPD1 090636Z 28007KT M04/M07 A3031 RMK A01 T10401066  RH  082%=      5-min Rain = 0
KPD1 090637Z 28006KT M04/M07 A3031 RMK A01 T10401066  RH  083%=      5-min Rain = 0
KPD1 090638Z 28007KT M04/M07 A3031 RMK A01 T10411066  RH  083%=      5-min Rain = 0
KPD1 090639Z 28007KT M04/M07 A3031 RMK A01 T10411066  RH  083%=      5-min Rain = 0
KPD1 090640Z 28007KT M04/M07 A3031 RMK A01 T10411065  RH  083%=      5-min Rain = 0
KPD1 090641Z 28007KT M04/M07 A3031 RMK A01 T10411065  RH  083%=      5-min Rain = 0
KPD1 090642Z 28007KT M04/M07 A3031 RMK A01 T10411065  RH  083%=      5-min Rain = 0
KPD1 090643Z 28007KT M04/M06 A3031 RMK A01 T10401064  RH  083%=      5-min Rain = 0
KPD1 090644Z 28007KT M04/M07 A3031 RMK A01 T10411065  RH  083%=      5-min Rain = 0
KPD1 090645Z 28007KT M04/M06 A3031 RMK A01 T10401064  RH  083%=      5-min Rain = 0
KPD1 090646Z 28007KT M04/M06 A3031 RMK A01 T10401064  RH  083%=      5-min Rain = 0
KPD1 090647Z 28008KT M04/M06 A3031 RMK A01 T10401064  RH  084%=      5-min Rain = 0
KPD1 090648Z 28008KT M04/M06 A3031 RMK A01 T10391062  RH  084%=      5-min Rain = 0
KPD1 090649Z 28008KT M04/M06 A3031 RMK A01 T10381062  RH  084%=      5-min Rain = 0
KPD1 090650Z 28008KT M04/M06 A3031 RMK A01 T10381062  RH  083%=      5-min Rain = 0
KPD1 090651Z 28008KT M04/M06 A3031 RMK A01 T10381064  RH  083%=      5-min Rain = 0
KPD1 090652Z 28008KT M04/M07 A3031 RMK A01 T10391065  RH  082%=      5-min Rain = 0
KPD1 090653Z 28008KT M04/M07 A3031 RMK A01 T10391067  RH  081%=      5-min Rain = 0
KPD1 090654Z 28008KT M04/M07 A3031 RMK A01 T10401069  RH  081%=      5-min Rain = 0
KPD1 090655Z 28007KT M04/M07 A3031 RMK A01 T10411070  RH  080%=      5-min Rain = 0
KPD1 090656Z 28007KT M04/M07 A3031 RMK A01 T10411070  RH  080%=      5-min Rain = 0
KPD1 090657Z 28007KT M04/M07 A3031 RMK A01 T10421071  RH  080%=      5-min Rain = 0
KPD1 090658Z 28007KT M04/M07 A3031 RMK A01 T10431073  RH  080%=      5-min Rain = 0
KPD1 090659Z 28007KT M05/M08 A3031 RMK A01 T10451075  RH  080%=      5-min Rain = 0
KPD1 090700Z 29007KT M05/M08 A3031 RMK A01 T10451075  RH  079%=      5-min Rain = 0
KPD1 090701Z 29007KT M05/M08 A3031 RMK A01 T10451075  RH  080%=      5-min Rain = 0
KPD1 090702Z 29007KT M05/M08 A3031 RMK A01 T10451075  RH  080%=      5-min Rain = 0
KPD1 090703Z 29007KT M05/M08 A3031 RMK A01 T10451075  RH  080%=      5-min Rain = 0
KPD1 090704Z 29008KT M05/M07 A3031 RMK A01 T10451074  RH  080%=      5-min Rain = 0
KPD1 090705Z 29008KT M05/M08 A3031 RMK A01 T10451075  RH  080%=      5-min Rain = 0
KPD1 090706Z 29007KT M05/M07 A3031 RMK A01 T10451074  RH  080%=      5-min Rain = 0
KPD1 090707Z 29007KT M04/M07 A3031 RMK A01 T10441074  RH  080%=      5-min Rain = 0
KPD1 090708Z 29007KT M04/M07 A3031 RMK A01 T10441073  RH  080%=      5-min Rain = 0
KPD1 090709Z 29008KT M04/M07 A3031 RMK A01 T10431073  RH  080%=      5-min Rain = 0
KPD1 090710Z 29008KT M04/M07 A3031 RMK A01 T10431074  RH  079%=      5-min Rain = 0
KPD1 090711Z 29007KT M04/M07 A3031 RMK A01 T10431074  RH  079%=      5-min Rain = 0
KPD1 090712Z 29008KT M04/M07 A3031 RMK A01 T10431073  RH  079%=      5-min Rain = 0
KPD1 090713Z 29007KT M04/M07 A3031 RMK A01 T10431073  RH  079%=      5-min Rain = 0
KPD1 090714Z 30007KT M04/M07 A3031 RMK A01 T10431074  RH  079%=      5-min Rain = 0
KPD1 090715Z 29007KT M04/M07 A3031 RMK A01 T10431074  RH  079%=      5-min Rain = 0
KPD1 090716Z 29007KT M04/M07 A3031 RMK A01 T10431074  RH  079%=      5-min Rain = 0
KPD1 090717Z 29007KT M04/M07 A303 RMK A01 T10431074  RH  079%=      5-min Rain = 0
KPD1 090718Z 29007KT M04/M07 A303 RMK A01 T10421073  RH  079%=      5-min Rain = 0
KPD1 090719Z 29007KT M04/M07 A303 RMK A01 T10421072  RH  080%=      5-min Rain = 0
KPD1 090720Z 29007KT M04/M07 A303 RMK A01 T10411071  RH  080%=      5-min Rain = 0
KPD1 090721Z 29007KT M04/M07 A303 RMK A01 T10401069  RH  080%=      5-min Rain = 0
KPD1 090722Z 29007KT M04/M07 A303 RMK A01 T10391068  RH  080%=      5-min Rain = 0
KPD1 090723Z 29007KT M04/M07 A303 RMK A01 T10391068  RH  080%=      5-min Rain = 0
KPD1 090724Z 29007KT M04/M07 A303 RMK A01 T10391068  RH  080%=      5-min Rain = 0
KPD1 090725Z 29007KT M04/M07 A303 RMK A01 T10391067  RH  081%=      5-min Rain = 0
KPD1 090726Z 29007KT M04/M07 A303 RMK A01 T10391067  RH  080%=      5-min Rain = 0
KPD1 090727Z 29006KT M04/M07 A303 RMK A01 T10391067  RH  081%=      5-min Rain = 0
KPD1 090728Z 29006KT M04/M07 A303 RMK A01 T10391067  RH  080%=      5-min Rain = 0
KPD1 090729Z 28006KT M04/M07 A303 RMK A01 T10391068  RH  081%=      5-min Rain = 0
KPD1 090730Z 28006KT M04/M07 A303 RMK A01 T10391068  RH  081%=      5-min Rain = 0
KPD1 090731Z 28006KT M04/M07 A303 RMK A01 T10391068  RH  081%=      5-min Rain = 0
KPD1 090732Z 29006KT M04/M07 A303 RMK A01 T10391067  RH  081%=      5-min Rain = 0
KPD1 090733Z 29006KT M04/M07 A303 RMK A01 T10391067  RH  081%=      5-min Rain = 0
KPD1 090734Z 29006KT M04/M07 A3029 RMK A01 T10381066  RH  081%=      5-min Rain = 0
KPD1 090735Z 29005KT M04/M07 A3029 RMK A01 T10381065  RH  081%=      5-min Rain = 0
KPD1 090736Z 33002KT M04/M06 A3029 RMK A01 T10381064  RH  082%=      5-min Rain = 0
KPD1 090737Z 04002KT M04/M07 A3029 RMK A01 T10381065  RH  082%=      5-min Rain = 0
KPD1 090738Z 36003KT M04/M07 A3029 RMK A01 T10391066  RH  082%=      5-min Rain = 0
KPD1 090739Z 33003KT M04/M07 A3029 RMK A01 T10391067  RH  081%=      5-min Rain = 0
KPD1 090740Z 34003KT M04/M07 A3029 RMK A01 T10401067  RH  081%=      5-min Rain = 0
KPD1 090741Z 36001KT M04/M07 A3029 RMK A01 T10401067  RH  081%=      5-min Rain = 0
KPD1 090742Z 00000KT M04/M07 A3029 RMK A01 T10411068  RH  081%=      5-min Rain = 0
KPD1 090743Z 00000KT M04/M07 A3029 RMK A01 T10411068  RH  081%=      5-min Rain = 0
KPD1 090744Z 00000KT M04/M07 A3029 RMK A01 T10411069  RH  081%=      5-min Rain = 0
KPD1 090745Z 00000KT M04/M07 A3029 RMK A01 T10431070  RH  081%=      5-min Rain = 0
KPD1 090746Z 00000KT M04/M07 A3029 RMK A01 T10431070  RH  082%=      5-min Rain = 0
KPD1 090747Z 00000KT M04/M07 A3029 RMK A01 T10441070  RH  082%=      5-min Rain = 0
KPD1 090748Z 00000KT M05/M07 A3029 RMK A01 T10451071  RH  082%=      5-min Rain = 0
KPD1 090749Z 00000KT M05/M07 A3029 RMK A01 T10451071  RH  082%=      5-min Rain = 0
KPD1 090750Z 00000KT M05/M07 A3029 RMK A01 T10461071  RH  082%=      5-min Rain = 0
KPD1 090751Z 09000KT M05/M07 A3029 RMK A01 T10461071  RH  083%=      5-min Rain = 0
KPD1 090752Z 07000KT M05/M07 A3029 RMK A01 T10471071  RH  083%=      5-min Rain = 0
KPD1 090753Z 03000KT M05/M07 A3029 RMK A01 T10461071  RH  083%=      5-min Rain = 0
KPD1 090754Z 31000KT M05/M07 A303 RMK A01 T10471071  RH  083%=      5-min Rain = 0
KPD1 090755Z 33001KT M05/M07 A303 RMK A01 T10471071  RH  083%=      5-min Rain = 0
KPD1 090756Z 03001KT M05/M07 A303 RMK A01 T10471071  RH  083%=      5-min Rain = 0
KPD1 090757Z 01002KT M05/M07 A303 RMK A01 T10471072  RH  083%=      5-min Rain = 0
KPD1 090758Z 34002KT M05/M07 A303 RMK A01 T10471073  RH  082%=      5-min Rain = 0
KPD1 090759Z 33004KT M05/M08 A303 RMK A01 T10481075  RH  082%=      5-min Rain = 0
KPD1 090800Z 34004KT M05/M08 A303 RMK A01 T10491076  RH  081%=      5-min Rain = 0
KPD1 090801Z 34005KT M05/M08 A303 RMK A01 T10491077  RH  081%=      5-min Rain = 0
KPD1 090802Z 34004KT M05/M08 A303 RMK A01 T10501077  RH  081%=      5-min Rain = 0
KPD1 090803Z 34005KT M05/M08 A303 RMK A01 T10501077  RH  081%=      5-min Rain = 0
KPD1 090804Z 33005KT M05/M08 A303 RMK A01 T10501077  RH  081%=      5-min Rain = 0
KPD1 090805Z 33005KT M05/M08 A303 RMK A01 T10501078  RH  081%=      5-min Rain = 0
KPD1 090806Z 32005KT M05/M08 A303 RMK A01 T10511079  RH  081%=      5-min Rain = 0
KPD1 090807Z 32004KT M05/M08 A303 RMK A01 T10521080  RH  081%=      5-min Rain = 0
KPD1 090808Z 31005KT M05/M08 A303 RMK A01 T10531081  RH  081%=      5-min Rain = 0
KPD1 090809Z 31005KT M05/M08 A303 RMK A01 T10531081  RH  081%=      5-min Rain = 0
KPD1 090810Z 31005KT M05/M08 A303 RMK A01 T10531081  RH  081%=      5-min Rain = 0
KPD1 090811Z 31005KT M05/M08 A303 RMK A01 T10541080  RH  082%=      5-min Rain = 0
KPD1 090812Z 31006KT M05/M08 A303 RMK A01 T10541081  RH  082%=      5-min Rain = 0
KPD1 090813Z 31006KT M05/M08 A303 RMK A01 T10531080  RH  082%=      5-min Rain = 0
KPD1 090814Z 30006KT M05/M08 A3031 RMK A01 T10531080  RH  082%=      5-min Rain = 0
KPD1 090815Z 30007KT M05/M08 A3031 RMK A01 T10531079  RH  082%=      5-min Rain = 0
KPD1 090816Z 29007KT M05/M08 A3031 RMK A01 T10521078  RH  082%=      5-min Rain = 0
KPD1 090817Z 29007KT M05/M08 A3031 RMK A01 T10511076  RH  082%=      5-min Rain = 0
KPD1 090818Z 29007KT M05/M08 A3031 RMK A01 T10501075  RH  082%=      5-min Rain = 0
KPD1 090819Z 29007KT M05/M07 A3031 RMK A01 T10481073  RH  082%=      5-min Rain = 0
KPD1 090820Z 29007KT M05/M07 A3031 RMK A01 T10471072  RH  082%=      5-min Rain = 0
KPD1 090821Z 29007KT M05/M07 A3031 RMK A01 T10451071  RH  082%=      5-min Rain = 0
KPD1 090822Z 29007KT M05/M07 A3031 RMK A01 T10451071  RH  082%=      5-min Rain = 0
KPD1 090823Z 29008KT M04/M07 A3031 RMK A01 T10441071  RH  081%=      5-min Rain = 0
KPD1 090824Z 29007KT M04/M07 A3031 RMK A01 T10441072  RH  081%=      5-min Rain = 0
KPD1 090825Z 29007KT M04/M07 A3031 RMK A01 T10441073  RH  081%=      5-min Rain = 0
KPD1 090826Z 29007KT M04/M07 A3031 RMK A01 T10441073  RH  081%=      5-min Rain = 0
KPD1 090827Z 29007KT M04/M07 A3031 RMK A01 T10441073  RH  080%=      5-min Rain = 0
KPD1 090828Z 29006KT M04/M07 A3031 RMK A01 T10441073  RH  081%=      5-min Rain = 0
KPD1 090829Z 29006KT M04/M07 A3031 RMK A01 T10441072  RH  081%=      5-min Rain = 0
KPD1 090830Z 29006KT M04/M07 A3031 RMK A01 T10431071  RH  081%=      5-min Rain = 0
KPD1 090831Z 29007KT M04/M07 A3031 RMK A01 T10431071  RH  081%=      5-min Rain = 0
KPD1 090832Z 29007KT M04/M07 A303 RMK A01 T10421070  RH  081%=      5-min Rain = 0
KPD1 090833Z 29007KT M04/M07 A303 RMK A01 T10421069  RH  081%=      5-min Rain = 0
KPD1 090834Z 29007KT M04/M07 A303 RMK A01 T10411069  RH  081%=      5-min Rain = 0
KPD1 090835Z 29007KT M04/M07 A303 RMK A01 T10411070  RH  081%=      5-min Rain = 0
KPD1 090836Z 29007KT M04/M07 A303 RMK A01 T10421070  RH  081%=      5-min Rain = 0
KPD1 090837Z 28007KT M04/M07 A303 RMK A01 T10411069  RH  081%=      5-min Rain = 0
KPD1 090838Z 28006KT M04/M07 A303 RMK A01 T10411069  RH  081%=      5-min Rain = 0
KPD1 090839Z 29007KT M04/M07 A303 RMK A01 T10411069  RH  081%=      5-min Rain = 0
KPD1 090840Z 29007KT M04/M07 A303 RMK A01 T10411069  RH  081%=      5-min Rain = 0
KPD1 090841Z 30007KT M04/M07 A303 RMK A01 T10411069  RH  081%=      5-min Rain = 0
KPD1 090842Z 30005KT M04/M07 A303 RMK A01 T10411069  RH  081%=      5-min Rain = 0
KPD1 090843Z 31005KT M04/M07 A303 RMK A01 T10421070  RH  081%=      5-min Rain = 0
KPD1 090844Z 32004KT M04/M07 A303 RMK A01 T10431072  RH  080%=      5-min Rain = 0
KPD1 090845Z 32004KT M05/M07 A303 RMK A01 T10451074  RH  080%=      5-min Rain = 0
KPD1 090846Z 32004KT M05/M08 A303 RMK A01 T10461076  RH  080%=      5-min Rain = 0
KPD1 090847Z 31005KT M05/M08 A303 RMK A01 T10471076  RH  080%=      5-min Rain = 0
KPD1 090848Z 31006KT M05/M08 A303 RMK A01 T10481076  RH  081%=      5-min Rain = 0
KPD1 090849Z 31006KT M05/M08 A303 RMK A01 T10481075  RH  081%=      5-min Rain = 0
KPD1 090850Z 31005KT M05/M08 A303 RMK A01 T10481075  RH  081%=      5-min Rain = 0
KPD1 090851Z 31006KT M05/M07 A303 RMK A01 T10481074  RH  082%=      5-min Rain = 0
KPD1 090852Z 31006KT M05/M07 A303 RMK A01 T10481074  RH  082%=      5-min Rain = 0
KPD1 090853Z 31006KT M05/M07 A303 RMK A01 T10471074  RH  082%=      5-min Rain = 0
KPD1 090854Z 31006KT M05/M07 A303 RMK A01 T10471074  RH  082%=      5-min Rain = 0
KPD1 090855Z 31006KT M05/M07 A303 RMK A01 T10481074  RH  082%=      5-min Rain = 0
KPD1 090856Z 31005KT M05/M07 A303 RMK A01 T10471074  RH  082%=      5-min Rain = 0
KPD1 090857Z 32005KT M05/M07 A303 RMK A01 T10481074  RH  082%=      5-min Rain = 0
KPD1 090858Z 31005KT M05/M08 A3031 RMK A01 T10491076  RH  081%=      5-min Rain = 0
KPD1 090859Z 32005KT M05/M08 A3031 RMK A01 T10491076  RH  081%=      5-min Rain = 0
KPD1 090900Z 32006KT M05/M08 A3031 RMK A01 T10501077  RH  081%=      5-min Rain = 0
KPD1 090901Z 32005KT M05/M08 A3031 RMK A01 T10511078  RH  081%=      5-min Rain = 0
KPD1 090902Z 32005KT M05/M08 A3031 RMK A01 T10521079  RH  081%=      5-min Rain = 0
KPD1 090903Z 32005KT M05/M08 A3031 RMK A01 T10531081  RH  081%=      5-min Rain = 0
KPD1 090904Z 32005KT M05/M08 A3031 RMK A01 T10541082  RH  081%=      5-min Rain = 0
KPD1 090905Z 31005KT M06/M08 A3031 RMK A01 T10551082  RH  081%=      5-min Rain = 0
KPD1 090906Z 31006KT M06/M08 A3031 RMK A01 T10551082  RH  082%=      5-min Rain = 0
KPD1 090907Z 31006KT M06/M08 A3031 RMK A01 T10551081  RH  082%=      5-min Rain = 0
KPD1 090908Z 31006KT M06/M08 A3031 RMK A01 T10551080  RH  082%=      5-min Rain = 0
KPD1 090909Z 31006KT M05/M08 A3031 RMK A01 T10541079  RH  083%=      5-min Rain = 0
KPD1 090910Z 31006KT M05/M08 A3031 RMK A01 T10531078  RH  083%=      5-min Rain = 0
KPD1 090911Z 31006KT M05/M08 A3031 RMK A01 T10521077  RH  083%=      5-min Rain = 0
KPD1 090912Z 31007KT M05/M08 A3031 RMK A01 T10511076  RH  083%=      5-min Rain = 0
KPD1 090913Z 31006KT M05/M08 A3031 RMK A01 T10511075  RH  083%=      5-min Rain = 0
KPD1 090914Z 31007KT M05/M07 A3031 RMK A01 T10501074  RH  083%=      5-min Rain = 0
KPD1 090915Z 31007KT M05/M07 A3031 RMK A01 T10491074  RH  083%=      5-min Rain = 0
KPD1 090916Z 30007KT M05/M07 A3031 RMK A01 T10481074  RH  083%=      5-min Rain = 0
KPD1 090917Z 30007KT M05/M07 A3031 RMK A01 T10491074  RH  082%=      5-min Rain = 0
KPD1 090918Z 30007KT M05/M07 A3031 RMK A01 T10481074  RH  082%=      5-min Rain = 0
KPD1 090919Z 30007KT M05/M07 A3031 RMK A01 T10481074  RH  082%=      5-min Rain = 0
KPD1 090920Z 30007KT M05/M07 A3031 RMK A01 T10471074  RH  082%=      5-min Rain = 0
KPD1 090921Z 30007KT M05/M07 A3031 RMK A01 T10471073  RH  082%=      5-min Rain = 0
KPD1 090922Z 30007KT M05/M07 A3031 RMK A01 T10471073  RH  082%=      5-min Rain = 0
KPD1 090923Z 30007KT M05/M07 A3031 RMK A01 T10471073  RH  082%=      5-min Rain = 0
KPD1 090924Z 30008KT M05/M07 A3031 RMK A01 T10461072  RH  082%=      5-min Rain = 0
KPD1 090925Z 30008KT M05/M07 A3031 RMK A01 T10451072  RH  082%=      5-min Rain = 0
KPD1 090926Z 30008KT M05/M07 A3031 RMK A01 T10451071  RH  082%=      5-min Rain = 0
KPD1 090927Z 30007KT M04/M07 A3031 RMK A01 T10441070  RH  082%=      5-min Rain = 0
KPD1 090928Z 30007KT M04/M07 A3031 RMK A01 T10431069  RH  082%=      5-min Rain = 0
KPD1 090929Z 30007KT M04/M07 A3031 RMK A01 T10421068  RH  082%=      5-min Rain = 0
KPD1 090930Z 30007KT M04/M07 A303 RMK A01 T10421068  RH  082%=      5-min Rain = 0
KPD1 090931Z 30007KT M04/M07 A303 RMK A01 T10411067  RH  082%=      5-min Rain = 0
KPD1 090932Z 30006KT M04/M07 A3031 RMK A01 T10401067  RH  082%=      5-min Rain = 0
KPD1 090933Z 30007KT M04/M07 A3031 RMK A01 T10401067  RH  082%=      5-min Rain = 0
KPD1 090934Z 31006KT M04/M07 A3031 RMK A01 T10401067  RH  081%=      5-min Rain = 0
KPD1 090935Z 31005KT M04/M07 A3031 RMK A01 T10401067  RH  081%=      5-min Rain = 0
KPD1 090936Z 32005KT M04/M07 A3031 RMK A01 T10401068  RH  081%=      5-min Rain = 0
KPD1 090937Z 33004KT M04/M07 A3031 RMK A01 T10421070  RH  081%=      5-min Rain = 0
KPD1 090938Z 32004KT M04/M07 A3031 RMK A01 T10431071  RH  081%=      5-min Rain = 0
KPD1 090939Z 31004KT M04/M07 A3031 RMK A01 T10441072  RH  081%=      5-min Rain = 0
KPD1 090940Z 31005KT M05/M07 A3031 RMK A01 T10451073  RH  081%=      5-min Rain = 0
KPD1 090941Z 31004KT M05/M07 A3031 RMK A01 T10461074  RH  081%=      5-min Rain = 0
KPD1 090942Z 31004KT M05/M07 A3031 RMK A01 T10471074  RH  081%=      5-min Rain = 0
KPD1 090943Z 32004KT M05/M08 A3031 RMK A01 T10481075  RH  081%=      5-min Rain = 0
KPD1 090944Z 32004KT M05/M08 A3031 RMK A01 T10481076  RH  081%=      5-min Rain = 0
KPD1 090945Z 32004KT M05/M08 A3031 RMK A01 T10491076  RH  081%=      5-min Rain = 0
KPD1 090946Z 32004KT M05/M08 A3031 RMK A01 T10501077  RH  081%=      5-min Rain = 0
KPD1 090947Z 32003KT M05/M08 A3031 RMK A01 T10501076  RH  082%=      5-min Rain = 0
KPD1 090948Z 33004KT M05/M08 A3031 RMK A01 T10501076  RH  082%=      5-min Rain = 0
KPD1 090949Z 32004KT M05/M08 A3031 RMK A01 T10501076  RH  082%=      5-min Rain = 0
KPD1 090950Z 32004KT M05/M08 A3031 RMK A01 T10511076  RH  082%=      5-min Rain = 0
KPD1 090951Z 32004KT M05/M08 A3031 RMK A01 T10501076  RH  082%=      5-min Rain = 0
KPD1 090952Z 32004KT M05/M08 A3031 RMK A01 T10501076  RH  082%=      5-min Rain = 0
KPD1 090953Z 31005KT M05/M08 A3031 RMK A01 T10511077  RH  082%=      5-min Rain = 0
KPD1 090954Z 32004KT M05/M08 A3031 RMK A01 T10521078  RH  082%=      5-min Rain = 0
KPD1 090955Z 32004KT M05/M08 A3031 RMK A01 T10521078  RH  082%=      5-min Rain = 0
KPD1 090956Z 32004KT M05/M08 A3031 RMK A01 T10531079  RH  082%=      5-min Rain = 0
KPD1 090957Z 32004KT M05/M08 A3031 RMK A01 T10531080  RH  082%=      5-min Rain = 0
KPD1 090958Z 32004KT M05/M08 A3031 RMK A01 T10531079  RH  082%=      5-min Rain = 0
KPD1 090959Z 32004KT M05/M08 A3031 RMK A01 T10531079  RH  082%=      5-min Rain = 0
KPD1 091000Z 32004KT M05/M08 A3031 RMK A01 T10531078  RH  083%=      5-min Rain = 0
KPD1 091001Z 33004KT M05/M08 A3031 RMK A01 T10541079  RH  083%=      5-min Rain = 0
KPD1 091002Z 32004KT M06/M08 A3031 RMK A01 T10551080  RH  082%=      5-min Rain = 0
KPD1 091003Z 33004KT M06/M08 A3031 RMK A01 T10551081  RH  082%=      5-min Rain = 0
KPD1 091004Z 32004KT M06/M08 A3031 RMK A01 T10551081  RH  082%=      5-min Rain = 0
KPD1 091005Z 32004KT M06/M08 A3031 RMK A01 T10561081  RH  082%=      5-min Rain = 0
KPD1 091006Z 32005KT M06/M08 A3031 RMK A01 T10561082  RH  082%=      5-min Rain = 0
KPD1 091007Z 31005KT M06/M08 A3031 RMK A01 T10571082  RH  083%=      5-min Rain = 0
KPD1 091008Z 31004KT M06/M08 A303 RMK A01 T10571082  RH  083%=      5-min Rain = 0
KPD1 091009Z 31005KT M06/M08 A303 RMK A01 T10581083  RH  083%=      5-min Rain = 0
KPD1 091010Z 31005KT M06/M08 A303 RMK A01 T10591083  RH  083%=      5-min Rain = 0
KPD1 091011Z 31005KT M06/M08 A303 RMK A01 T10581082  RH  083%=      5-min Rain = 0
KPD1 091012Z 31006KT M06/M08 A303 RMK A01 T10581082  RH  083%=      5-min Rain = 0
KPD1 091013Z 31006KT M06/M08 A303 RMK A01 T10581081  RH  084%=      5-min Rain = 0
KPD1 091014Z 31006KT M06/M08 A3031 RMK A01 T10581081  RH  084%=      5-min Rain = 0
KPD1 091015Z 31006KT M06/M08 A3031 RMK A01 T10581081  RH  084%=      5-min Rain = 0
KPD1 091016Z 32005KT M06/M08 A3031 RMK A01 T10581081  RH  084%=      5-min Rain = 0
KPD1 091017Z 32006KT M06/M08 A303 RMK A01 T10571081  RH  084%=      5-min Rain = 0
KPD1 091018Z 32006KT M06/M08 A303 RMK A01 T10561079  RH  084%=      5-min Rain = 0
KPD1 091019Z 32006KT M06/M08 A303 RMK A01 T10551078  RH  084%=      5-min Rain = 0
KPD1 091020Z 33005KT M06/M08 A303 RMK A01 T10551078  RH  083%=      5-min Rain = 0
KPD1 091021Z 33005KT M06/M08 A3031 RMK A01 T10551080  RH  083%=      5-min Rain = 0
KPD1 091022Z 32006KT M06/M08 A3031 RMK A01 T10571082  RH  082%=      5-min Rain = 0
KPD1 091023Z 32007KT M06/M08 A3031 RMK A01 T10571082  RH  082%=      5-min Rain = 0
KPD1 091024Z 32005KT M06/M08 A3031 RMK A01 T10571082  RH  083%=      5-min Rain = 0
KPD1 091025Z 32005KT M06/M08 A3031 RMK A01 T10571082  RH  083%=      5-min Rain = 0
KPD1 091026Z 32006KT M06/M08 A3031 RMK A01 T10571081  RH  083%=      5-min Rain = 0
KPD1 091027Z 31007KT M06/M08 A3031 RMK A01 T10561080  RH  083%=      5-min Rain = 0
KPD1 091028Z 31008KT M05/M08 A3031 RMK A01 T10531077  RH  084%=      5-min Rain = 0
KPD1 091029Z 31008KT M05/M08 A3031 RMK A01 T10521075  RH  084%=      5-min Rain = 0
KPD1 091030Z 31006KT M05/M08 A3031 RMK A01 T10511075  RH  083%=      5-min Rain = 0
KPD1 091031Z 31005KT M05/M08 A3031 RMK A01 T10511076  RH  083%=      5-min Rain = 0
KPD1 091032Z 31005KT M05/M08 A3031 RMK A01 T10521078  RH  082%=      5-min Rain = 0
KPD1 091033Z 31005KT M05/M08 A3031 RMK A01 T10531079  RH  082%=      5-min Rain = 0
KPD1 091034Z 31005KT M05/M08 A3031 RMK A01 T10531079  RH  082%=      5-min Rain = 0
KPD1 091035Z 31004KT M05/M08 A3031 RMK A01 T10531079  RH  082%=      5-min Rain = 0
KPD1 091036Z 31005KT M05/M08 A3031 RMK A01 T10531079  RH  082%=      5-min Rain = 0
KPD1 091037Z 31005KT M05/M08 A3031 RMK A01 T10531078  RH  083%=      5-min Rain = 0
KPD1 091038Z 31005KT M05/M08 A303 RMK A01 T10531078  RH  083%=      5-min Rain = 0
KPD1 091039Z 31006KT M05/M08 A303 RMK A01 T10531078  RH  083%=      5-min Rain = 0
KPD1 091040Z 31006KT M05/M08 A3031 RMK A01 T10531078  RH  083%=      5-min Rain = 0
KPD1 091041Z 31006KT M05/M08 A3031 RMK A01 T10531078  RH  083%=      5-min Rain = 0
KPD1 091042Z 31005KT M05/M08 A3031 RMK A01 T10531078  RH  083%=      5-min Rain = 0
KPD1 091043Z 31005KT M05/M08 A3031 RMK A01 T10531078  RH  082%=      5-min Rain = 0
KPD1 091044Z 31005KT M05/M08 A3031 RMK A01 T10531079  RH  082%=      5-min Rain = 0
KPD1 091045Z 31005KT M05/M08 A3031 RMK A01 T10531078  RH  082%=      5-min Rain = 0
KPD1 091046Z 31005KT M05/M08 A3031 RMK A01 T10531078  RH  083%=      5-min Rain = 0
KPD1 091047Z 31006KT M05/M08 A3031 RMK A01 T10521077  RH  083%=      5-min Rain = 0
KPD1 091048Z 32005KT M05/M08 A3031 RMK A01 T10511076  RH  083%=      5-min Rain = 0
KPD1 091049Z 32005KT M05/M08 A3031 RMK A01 T10511077  RH  082%=      5-min Rain = 0
KPD1 091050Z 32005KT M05/M08 A3031 RMK A01 T10511077  RH  082%=      5-min Rain = 0
KPD1 091051Z 32005KT M05/M08 A3031 RMK A01 T10521078  RH  082%=      5-min Rain = 0
KPD1 091052Z 32005KT M05/M08 A3031 RMK A01 T10521078  RH  082%=      5-min Rain = 0
KPD1 091053Z 32006KT M05/M08 A3031 RMK A01 T10521078  RH  082%=      5-min Rain = 0
KPD1 091054Z 31006KT M05/M08 A3031 RMK A01 T10521077  RH  082%=      5-min Rain = 0
KPD1 091055Z 31006KT M05/M08 A3031 RMK A01 T10511077  RH  082%=      5-min Rain = 0
KPD1 091056Z 31006KT M05/M08 A3031 RMK A01 T10511077  RH  082%=      5-min Rain = 0
KPD1 091057Z 31006KT M05/M08 A3031 RMK A01 T10511077  RH  082%=      5-min Rain = 0
KPD1 091058Z 31005KT M05/M08 A3031 RMK A01 T10501076  RH  082%=      5-min Rain = 0
KPD1 091059Z 32005KT M05/M08 A3031 RMK A01 T10491075  RH  082%=      5-min Rain = 0
KPD1 091100Z 32006KT M05/M08 A3031 RMK A01 T10501076  RH  082%=      5-min Rain = 0
KPD1 091101Z 31006KT M05/M08 A3031 RMK A01 T10501076  RH  082%=      5-min Rain = 0
KPD1 091102Z 31006KT M05/M08 A3031 RMK A01 T10501076  RH  082%=      5-min Rain = 0
KPD1 091103Z 33005KT M05/M08 A3031 RMK A01 T10501076  RH  082%=      5-min Rain = 0
KPD1 091104Z 32005KT M05/M08 A3031 RMK A01 T10501076  RH  082%=      5-min Rain = 0
KPD1 091105Z 32005KT M05/M08 A3031 RMK A01 T10511077  RH  082%=      5-min Rain = 0
KPD1 091106Z 32005KT M05/M08 A3031 RMK A01 T10511078  RH  082%=      5-min Rain = 0
KPD1 091107Z 32005KT M05/M08 A3031 RMK A01 T10511078  RH  082%=      5-min Rain = 0
KPD1 091108Z 33005KT M05/M08 A3031 RMK A01 T10511077  RH  082%=      5-min Rain = 0
KPD1 091109Z 33005KT M05/M08 A3031 RMK A01 T10511077  RH  082%=      5-min Rain = 0
KPD1 091110Z 32005KT M05/M08 A3031 RMK A01 T10511077  RH  082%=      5-min Rain = 0
KPD1 091111Z 32006KT M05/M08 A303 RMK A01 T10511077  RH  082%=      5-min Rain = 0
KPD1 091112Z 32005KT M05/M08 A303 RMK A01 T10511078  RH  082%=      5-min Rain = 0
KPD1 091113Z 32005KT M05/M08 A303 RMK A01 T10511078  RH  082%=      5-min Rain = 0
KPD1 091114Z 32006KT M05/M08 A303 RMK A01 T10511078  RH  082%=      5-min Rain = 0
KPD1 091115Z 32006KT M05/M08 A303 RMK A01 T10511078  RH  081%=      5-min Rain = 0
KPD1 091116Z 32007KT M05/M08 A303 RMK A01 T10511078  RH  081%=      5-min Rain = 0
KPD1 091117Z 32006KT M05/M08 A303 RMK A01 T10511078  RH  081%=      5-min Rain = 0
KPD1 091118Z 32006KT M05/M08 A303 RMK A01 T10521079  RH  081%=      5-min Rain = 0
KPD1 091119Z 32006KT M05/M08 A303 RMK A01 T10521079  RH  081%=      5-min Rain = 0
KPD1 091120Z 32006KT M05/M08 A303 RMK A01 T10521079  RH  081%=      5-min Rain = 0
KPD1 091121Z 32005KT M05/M08 A303 RMK A01 T10521079  RH  081%=      5-min Rain = 0
KPD1 091122Z 32006KT M05/M08 A3031 RMK A01 T10531080  RH  081%=      5-min Rain = 0
KPD1 091123Z 32006KT M05/M08 A3031 RMK A01 T10531080  RH  081%=      5-min Rain = 0
KPD1 091124Z 33005KT M05/M08 A3031 RMK A01 T10531080  RH  081%=      5-min Rain = 0
KPD1 091125Z 33005KT M05/M08 A3031 RMK A01 T10531080  RH  081%=      5-min Rain = 0
KPD1 091126Z 34004KT M05/M08 A303 RMK A01 T10531080  RH  081%=      5-min Rain = 0
KPD1 091127Z 33004KT M05/M08 A303 RMK A01 T10531080  RH  082%=      5-min Rain = 0
KPD1 091128Z 33004KT M05/M08 A303 RMK A01 T10541081  RH  082%=      5-min Rain = 0
KPD1 091129Z 33004KT M05/M08 A303 RMK A01 T10541080  RH  082%=      5-min Rain = 0
KPD1 091130Z 33003KT M05/M08 A303 RMK A01 T10541080  RH  082%=      5-min Rain = 0
KPD1 091131Z 32002KT M05/M08 A303 RMK A01 T10541081  RH  082%=      5-min Rain = 0
KPD1 091132Z 32003KT M05/M08 A303 RMK A01 T10541080  RH  082%=      5-min Rain = 0
KPD1 091133Z 32004KT M05/M08 A303 RMK A01 T10541081  RH  082%=      5-min Rain = 0
KPD1 091134Z 32005KT M06/M08 A303 RMK A01 T10551082  RH  081%=      5-min Rain = 0
KPD1 091135Z 32005KT M06/M08 A303 RMK A01 T10551082  RH  081%=      5-min Rain = 0
KPD1 091136Z 32005KT M06/M08 A303 RMK A01 T10551082  RH  081%=      5-min Rain = 0
KPD1 091137Z 33004KT M06/M08 A303 RMK A01 T10561082  RH  082%=      5-min Rain = 0
KPD1 091138Z 33004KT M06/M08 A303 RMK A01 T10561082  RH  082%=      5-min Rain = 0
KPD1 091139Z 33004KT M06/M08 A303 RMK A01 T10561083  RH  082%=      5-min Rain = 0
KPD1 091140Z 32004KT M06/M08 A303 RMK A01 T10561082  RH  082%=      5-min Rain = 0
KPD1 091141Z 32005KT M06/M08 A303 RMK A01 T10561082  RH  082%=      5-min Rain = 0
KPD1 091142Z 33005KT M06/M08 A303 RMK A01 T10561082  RH  082%=      5-min Rain = 0
KPD1 091143Z 33005KT M06/M08 A303 RMK A01 T10561082  RH  082%=      5-min Rain = 0
KPD1 091144Z 33004KT M06/M08 A303 RMK A01 T10561082  RH  082%=      5-min Rain = 0
KPD1 091145Z 33004KT M06/M08 A303 RMK A01 T10561082  RH  082%=      5-min Rain = 0
KPD1 091146Z 33004KT M06/M08 A303 RMK A01 T10561081  RH  082%=      5-min Rain = 0
KPD1 091147Z 33004KT M06/M08 A303 RMK A01 T10551081  RH  082%=      5-min Rain = 0
KPD1 091148Z 33004KT M06/M08 A303 RMK A01 T10551081  RH  082%=      5-min Rain = 0
KPD1 091149Z 33004KT M06/M08 A303 RMK A01 T10551081  RH  082%=      5-min Rain = 0
KPD1 091150Z 33004KT M05/M08 A3031 RMK A01 T10541081  RH  082%=      5-min Rain = 0
KPD1 091151Z 32004KT M05/M08 A3031 RMK A01 T10541080  RH  082%=      5-min Rain = 0
KPD1 091152Z 33005KT M05/M08 A3031 RMK A01 T10531080  RH  081%=      5-min Rain = 0
KPD1 091153Z 32005KT M05/M08 A3031 RMK A01 T10531080  RH  081%=      5-min Rain = 0
KPD1 091154Z 32005KT M05/M08 A3031 RMK A01 T10531081  RH  081%=      5-min Rain = 0
KPD1 091155Z 33006KT M05/M08 A3031 RMK A01 T10521081  RH  081%=      5-min Rain = 0
KPD1 091156Z 32006KT M05/M08 A3031 RMK A01 T10521080  RH  081%=      5-min Rain = 0
KPD1 091157Z 33005KT M05/M08 A3031 RMK A01 T10521080  RH  081%=      5-min Rain = 0
KPD1 091158Z 33005KT M05/M08 A3031 RMK A01 T10521080  RH  080%=      5-min Rain = 0
KPD1 091159Z 33005KT M05/M08 A3031 RMK A01 T10521081  RH  080%=      5-min Rain = 0
KPD1 091200Z 33005KT M05/M08 A3031 RMK A01 T10521081  RH  080%=      5-min Rain = 0
KPD1 091201Z 32005KT M05/M08 A3031 RMK A01 T10521081  RH  080%=      5-min Rain = 0
KPD1 091202Z 31005KT M05/M08 A3031 RMK A01 T10521081  RH  080%=      5-min Rain = 0
KPD1 091203Z 32005KT M05/M08 A3031 RMK A01 T10521081  RH  080%=      5-min Rain = 0
KPD1 091204Z 32005KT M05/M08 A3031 RMK A01 T10521081  RH  080%=      5-min Rain = 0
KPD1 091205Z 33005KT M05/M08 A3031 RMK A01 T10521081  RH  080%=      5-min Rain = 0
KPD1 091206Z 33005KT M05/M08 A3031 RMK A01 T10521081  RH  080%=      5-min Rain = 0
KPD1 091207Z 32005KT M05/M08 A3031 RMK A01 T10521081  RH  080%=      5-min Rain = 0
KPD1 091208Z 32006KT M05/M08 A3031 RMK A01 T10521081  RH  080%=      5-min Rain = 0
KPD1 091209Z 33005KT M05/M08 A3031 RMK A01 T10521081  RH  080%=      5-min Rain = 0
KPD1 091210Z 33005KT M05/M08 A3031 RMK A01 T10531082  RH  080%=      5-min Rain = 0
KPD1 091211Z 33004KT M05/M08 A3031 RMK A01 T10531081  RH  080%=      5-min Rain = 0
KPD1 091212Z 33005KT M05/M08 A3031 RMK A01 T10521081  RH  080%=      5-min Rain = 0
KPD1 091213Z 33005KT M05/M08 A3031 RMK A01 T10531082  RH  080%=      5-min Rain = 0
KPD1 091214Z 33005KT M05/M08 A3031 RMK A01 T10531082  RH  080%=      5-min Rain = 0
KPD1 091215Z 33005KT M05/M08 A3031 RMK A01 T10531082  RH  080%=      5-min Rain = 0
KPD1 091216Z 32006KT M05/M08 A3031 RMK A01 T10541083  RH  080%=      5-min Rain = 0
KPD1 091217Z 32006KT M05/M08 A3031 RMK A01 T10541083  RH  080%=      5-min Rain = 0
KPD1 091218Z 32006KT M05/M08 A3031 RMK A01 T10541084  RH  080%=      5-min Rain = 0
KPD1 091219Z 32005KT M05/M08 A3031 RMK A01 T10541084  RH  080%=      5-min Rain = 0
KPD1 091220Z 32005KT M06/M08 A3031 RMK A01 T10551084  RH  080%=      5-min Rain = 0
KPD1 091221Z 32006KT M05/M08 A3031 RMK A01 T10541083  RH  080%=      5-min Rain = 0
KPD1 091222Z 32005KT M06/M08 A3032 RMK A01 T10551083  RH  081%=      5-min Rain = 0
KPD1 091223Z 33005KT M06/M08 A3032 RMK A01 T10551083  RH  081%=      5-min Rain = 0
KPD1 091224Z 32005KT M05/M08 A3032 RMK A01 T10541082  RH  081%=      5-min Rain = 0
KPD1 091225Z 33005KT M05/M08 A3032 RMK A01 T10541081  RH  081%=      5-min Rain = 0
KPD1 091226Z 33005KT M05/M08 A3032 RMK A01 T10531081  RH  081%=      5-min Rain = 0
KPD1 091227Z 33005KT M05/M08 A3032 RMK A01 T10521081  RH  081%=      5-min Rain = 0
KPD1 091228Z 32005KT M05/M08 A3032 RMK A01 T10521080  RH  080%=      5-min Rain = 0
KPD1 091229Z 33005KT M05/M08 A3032 RMK A01 T10521081  RH  080%=      5-min Rain = 0
KPD1 091230Z 32005KT M05/M08 A3032 RMK A01 T10521081  RH  080%=      5-min Rain = 0
KPD1 091231Z 32005KT M05/M08 A3032 RMK A01 T10521081  RH  080%=      5-min Rain = 0
KPD1 091232Z 32005KT M05/M08 A3032 RMK A01 T10521082  RH  080%=      5-min Rain = 0
KPD1 091233Z 33005KT M05/M08 A3032 RMK A01 T10521082  RH  080%=      5-min Rain = 0
KPD1 091234Z 33005KT M05/M08 A3032 RMK A01 T10521082  RH  080%=      5-min Rain = 0
KPD1 091235Z 33006KT M05/M08 A3032 RMK A01 T10521082  RH  080%=      5-min Rain = 0
KPD1 091236Z 33006KT M05/M08 A3032 RMK A01 T10521081  RH  080%=      5-min Rain = 0
KPD1 091237Z 32006KT M05/M08 A3032 RMK A01 T10521081  RH  080%=      5-min Rain = 0
KPD1 091238Z 32007KT M05/M08 A3032 RMK A01 T10511080  RH  080%=      5-min Rain = 0
KPD1 091239Z 32007KT M05/M08 A3032 RMK A01 T10501080  RH  080%=      5-min Rain = 0
KPD1 091240Z 32008KT M05/M08 A3032 RMK A01 T10491079  RH  080%=      5-min Rain = 0
KPD1 091241Z 32007KT M05/M08 A3032 RMK A01 T10491079  RH  079%=      5-min Rain = 0
KPD1 091242Z 32008KT M05/M08 A3032 RMK A01 T10481079  RH  079%=      5-min Rain = 0
KPD1 091243Z 32008KT M05/M08 A3032 RMK A01 T10471078  RH  079%=      5-min Rain = 0
KPD1 091244Z 32008KT M05/M08 A3032 RMK A01 T10471079  RH  079%=      5-min Rain = 0
KPD1 091245Z 32007KT M05/M08 A3032 RMK A01 T10471079  RH  078%=      5-min Rain = 0
KPD1 091246Z 32007KT M05/M08 A3032 RMK A01 T10471079  RH  078%=      5-min Rain = 0
KPD1 091247Z 32007KT M05/M08 A3032 RMK A01 T10471079  RH  078%=      5-min Rain = 0
KPD1 091248Z 32007KT M05/M08 A3032 RMK A01 T10471080  RH  078%=      5-min Rain = 0
KPD1 091249Z 32006KT M05/M08 A3032 RMK A01 T10461079  RH  078%=      5-min Rain = 0
KPD1 091250Z 32006KT M05/M08 A3032 RMK A01 T10461079  RH  078%=      5-min Rain = 0
KPD1 091251Z 32006KT M05/M08 A3032 RMK A01 T10461079  RH  077%=      5-min Rain = 0
KPD1 091252Z 32006KT M05/M08 A3032 RMK A01 T10461080  RH  077%=      5-min Rain = 0
KPD1 091253Z 32007KT M05/M08 A3032 RMK A01 T10461080  RH  077%=      5-min Rain = 0
KPD1 091254Z 32006KT M05/M08 A3033 RMK A01 T10461080  RH  077%=      5-min Rain = 0
KPD1 091255Z 32006KT M05/M08 A3033 RMK A01 T10461080  RH  077%=      5-min Rain = 0
KPD1 091256Z 33005KT M05/M08 A3033 RMK A01 T10461080  RH  077%=      5-min Rain = 0
KPD1 091257Z 33005KT M05/M08 A3033 RMK A01 T10461080  RH  077%=      5-min Rain = 0
KPD1 091258Z 33005KT M05/M08 A3033 RMK A01 T10461080  RH  077%=      5-min Rain = 0
KPD1 091259Z 33005KT M05/M08 A3033 RMK A01 T10451080  RH  077%=      5-min Rain = 0
KPD1 091300Z 33005KT M05/M08 A3033 RMK A01 T10451079  RH  077%=      5-min Rain = 0
KPD1 091301Z 33006KT M05/M08 A3033 RMK A01 T10451079  RH  077%=      5-min Rain = 0
KPD1 091302Z 33006KT M05/M08 A3033 RMK A01 T10451080  RH  076%=      5-min Rain = 0
KPD1 091303Z 33006KT M05/M08 A3033 RMK A01 T10451080  RH  076%=      5-min Rain = 0
KPD1 091304Z 32006KT M05/M08 A3033 RMK A01 T10451081  RH  076%=      5-min Rain = 0
KPD1 091305Z 32006KT M05/M08 A3033 RMK A01 T10461081  RH  076%=      5-min Rain = 0
KPD1 091306Z 32005KT M05/M08 A3033 RMK A01 T10461082  RH  076%=      5-min Rain = 0
KPD1 091307Z 33006KT M05/M08 A3033 RMK A01 T10461082  RH  076%=      5-min Rain = 0
KPD1 091308Z 32006KT M05/M08 A3033 RMK A01 T10471083  RH  076%=      5-min Rain = 0
KPD1 091309Z 32005KT M05/M08 A3033 RMK A01 T10481083  RH  076%=      5-min Rain = 0
KPD1 091310Z 32005KT M05/M08 A3033 RMK A01 T10491084  RH  077%=      5-min Rain = 0
KPD1 091311Z 32005KT M05/M08 A3033 RMK A01 T10491084  RH  077%=      5-min Rain = 0
KPD1 091312Z 32006KT M05/M08 A3033 RMK A01 T10501084  RH  077%=      5-min Rain = 0
KPD1 091313Z 33006KT M05/M09 A3033 RMK A01 T10511085  RH  077%=      5-min Rain = 0
KPD1 091314Z 33006KT M05/M09 A3033 RMK A01 T10521085  RH  077%=      5-min Rain = 0
KPD1 091315Z 33005KT M05/M09 A3033 RMK A01 T10521085  RH  077%=      5-min Rain = 0
KPD1 091316Z 32005KT M05/M09 A3033 RMK A01 T10521085  RH  078%=      5-min Rain = 0
KPD1 091317Z 32006KT M05/M09 A3033 RMK A01 T10531085  RH  078%=      5-min Rain = 0
KPD1 091318Z 32006KT M05/M09 A3033 RMK A01 T10531085  RH  078%=      5-min Rain = 0
KPD1 091319Z 32005KT M05/M09 A3033 RMK A01 T10531086  RH  078%=      5-min Rain = 0
KPD1 091320Z 32006KT M05/M09 A3033 RMK A01 T10541086  RH  078%=      5-min Rain = 0
KPD1 091321Z 32006KT M06/M09 A3033 RMK A01 T10551086  RH  079%=      5-min Rain = 0
KPD1 091322Z 32006KT M06/M09 A3034 RMK A01 T10551086  RH  079%=      5-min Rain = 0
KPD1 091323Z 33006KT M06/M09 A3034 RMK A01 T10551085  RH  079%=      5-min Rain = 0
KPD1 091324Z 33005KT M05/M08 A3034 RMK A01 T10541084  RH  079%=      5-min Rain = 0
KPD1 091325Z 33005KT M05/M08 A3034 RMK A01 T10541084  RH  079%=      5-min Rain = 0
KPD1 091326Z 32006KT M05/M08 A3034 RMK A01 T10531084  RH  079%=      5-min Rain = 0
KPD1 091327Z 32005KT M05/M08 A3034 RMK A01 T10531084  RH  079%=      5-min Rain = 0
KPD1 091328Z 32006KT M05/M08 A3034 RMK A01 T10531084  RH  079%=      5-min Rain = 0
KPD1 091329Z 32006KT M05/M08 A3034 RMK A01 T10531084  RH  079%=      5-min Rain = 0
KPD1 091330Z 32005KT M05/M09 A3034 RMK A01 T10541085  RH  079%=      5-min Rain = 0
KPD1 091331Z 32006KT M06/M09 A3034 RMK A01 T10551086  RH  079%=      5-min Rain = 0
KPD1 091332Z 32006KT M06/M09 A3034 RMK A01 T10551086  RH  079%=      5-min Rain = 0
KPD1 091333Z 32007KT M06/M09 A3034 RMK A01 T10561087  RH  079%=      5-min Rain = 0
KPD1 091334Z 32007KT M06/M09 A3034 RMK A01 T10561086  RH  079%=      5-min Rain = 0
KPD1 091335Z 32007KT M06/M09 A3034 RMK A01 T10551086  RH  079%=      5-min Rain = 0
KPD1 091336Z 31007KT M06/M09 A3034 RMK A01 T10561086  RH  079%=      5-min Rain = 0
KPD1 091337Z 31007KT M06/M09 A3034 RMK A01 T10561086  RH  079%=      5-min Rain = 0
KPD1 091338Z 31007KT M06/M09 A3034 RMK A01 T10561086  RH  079%=      5-min Rain = 0
KPD1 091339Z 31007KT M06/M09 A3034 RMK A01 T10561087  RH  079%=      5-min Rain = 0
KPD1 091340Z 31007KT M06/M09 A3034 RMK A01 T10561087  RH  079%=      5-min Rain = 0
KPD1 091341Z 32007KT M06/M09 A3034 RMK A01 T10561087  RH  079%=      5-min Rain = 0
KPD1 091342Z 31007KT M06/M09 A3034 RMK A01 T10561087  RH  079%=      5-min Rain = 0
KPD1 091343Z 32006KT M06/M09 A3034 RMK A01 T10561087  RH  078%=      5-min Rain = 0
KPD1 091344Z 31006KT M06/M09 A3034 RMK A01 T10551087  RH  078%=      5-min Rain = 0
KPD1 091345Z 31007KT M06/M09 A3034 RMK A01 T10551086  RH  078%=      5-min Rain = 0
KPD1 091346Z 32007KT M05/M09 A3034 RMK A01 T10541086  RH  078%=      5-min Rain = 0
KPD1 091347Z 32006KT M05/M09 A3035 RMK A01 T10541087  RH  078%=      5-min Rain = 0
KPD1 091348Z 32006KT M05/M09 A3035 RMK A01 T10541087  RH  078%=      5-min Rain = 0
KPD1 091349Z 32006KT M05/M09 A3035 RMK A01 T10541087  RH  078%=      5-min Rain = 0
KPD1 091350Z 32006KT M05/M09 A3035 RMK A01 T10541087  RH  078%=      5-min Rain = 0
KPD1 091351Z 32006KT M05/M09 A3035 RMK A01 T10541086  RH  078%=      5-min Rain = 0
KPD1 091352Z 32006KT M05/M09 A3035 RMK A01 T10541087  RH  078%=      5-min Rain = 0
KPD1 091353Z 32006KT M05/M09 A3035 RMK A01 T10541087  RH  077%=      5-min Rain = 0
KPD1 091354Z 32006KT M05/M09 A3035 RMK A01 T10541088  RH  077%=      5-min Rain = 0
KPD1 091355Z 32005KT M06/M09 A3035 RMK A01 T10551088  RH  077%=      5-min Rain = 0
KPD1 091356Z 32004KT M06/M09 A3035 RMK A01 T10551089  RH  077%=      5-min Rain = 0
KPD1 091357Z 32005KT M06/M09 A3035 RMK A01 T10551089  RH  077%=      5-min Rain = 0
KPD1 091358Z 32005KT M06/M09 A3035 RMK A01 T10561089  RH  077%=      5-min Rain = 0
KPD1 091359Z 32005KT M06/M09 A3035 RMK A01 T10561089  RH  078%=      5-min Rain = 0
KPD1 091400Z 32004KT M06/M09 A3035 RMK A01 T10561089  RH  078%=      5-min Rain = 0
KPD1 091401Z 33004KT M06/M09 A3035 RMK A01 T10561089  RH  078%=      5-min Rain = 0
KPD1 091402Z 33004KT M06/M09 A3035 RMK A01 T10561089  RH  078%=      5-min Rain = 0
KPD1 091403Z 33004KT M06/M09 A3035 RMK A01 T10561089  RH  077%=      5-min Rain = 0
KPD1 091404Z 33004KT M06/M09 A3035 RMK A01 T10561090  RH  077%=      5-min Rain = 0
KPD1 091405Z 33003KT M06/M09 A3035 RMK A01 T10551089  RH  077%=      5-min Rain = 0
KPD1 091406Z 33003KT M06/M09 A3035 RMK A01 T10551090  RH  077%=      5-min Rain = 0
KPD1 091407Z 32004KT M06/M09 A3035 RMK A01 T10551090  RH  076%=      5-min Rain = 0
KPD1 091408Z 32003KT M06/M09 A3035 RMK A01 T10551090  RH  076%=      5-min Rain = 0
KPD1 091409Z 32003KT M06/M09 A3035 RMK A01 T10551090  RH  076%=      5-min Rain = 0
KPD1 091410Z 32004KT M06/M09 A3035 RMK A01 T10551090  RH  076%=      5-min Rain = 0
KPD1 091411Z 32004KT M06/M09 A3035 RMK A01 T10551090  RH  077%=      5-min Rain = 0
KPD1 091412Z 32005KT M06/M09 A3035 RMK A01 T10551089  RH  077%=      5-min Rain = 0
KPD1 091413Z 33005KT M05/M09 A3035 RMK A01 T10541089  RH  077%=      5-min Rain = 0
KPD1 091414Z 33005KT M05/M09 A3035 RMK A01 T10541088  RH  077%=      5-min Rain = 0
KPD1 091415Z 33005KT M05/M09 A3035 RMK A01 T10521087  RH  077%=      5-min Rain = 0
KPD1 091416Z 33005KT M05/M09 A3035 RMK A01 T10511086  RH  076%=      5-min Rain = 0
KPD1 091417Z 33005KT M05/M09 A3035 RMK A01 T10501086  RH  076%=      5-min Rain = 0
KPD1 091418Z 33004KT M05/M09 A3035 RMK A01 T10501086  RH  076%=      5-min Rain = 0
KPD1 091419Z 33004KT M05/M09 A3035 RMK A01 T10491086  RH  075%=      5-min Rain = 0
KPD1 091420Z 34003KT M05/M09 A3035 RMK A01 T10481086  RH  075%=      5-min Rain = 0
KPD1 091421Z 34004KT M05/M09 A3035 RMK A01 T10481085  RH  075%=      5-min Rain = 0
KPD1 091422Z 34003KT M05/M09 A3035 RMK A01 T10471085  RH  075%=      5-min Rain = 0
KPD1 091423Z 33003KT M05/M08 A3036 RMK A01 T10461084  RH  075%=      5-min Rain = 0
KPD1 091424Z 33004KT M05/M08 A3036 RMK A01 T10461084  RH  075%=      5-min Rain = 0
KPD1 091425Z 33003KT M05/M08 A3036 RMK A01 T10451084  RH  075%=      5-min Rain = 0
KPD1 091426Z 33003KT M05/M08 A3036 RMK A01 T10451083  RH  074%=      5-min Rain = 0
KPD1 091427Z 33003KT M04/M08 A3036 RMK A01 T10431082  RH  074%=      5-min Rain = 0
KPD1 091428Z 33003KT M04/M08 A3036 RMK A01 T10431082  RH  074%=      5-min Rain = 0
KPD1 091429Z 33003KT M04/M08 A3036 RMK A01 T10421081  RH  074%=      5-min Rain = 0
KPD1 091430Z 33003KT M04/M08 A3036 RMK A01 T10401080  RH  074%=      5-min Rain = 0
KPD1 091431Z 34003KT M04/M08 A3036 RMK A01 T10401080  RH  074%=      5-min Rain = 0
KPD1 091432Z 34003KT M04/M08 A3036 RMK A01 T10391079  RH  074%=      5-min Rain = 0
KPD1 091433Z 34004KT M04/M08 A3036 RMK A01 T10371078  RH  073%=      5-min Rain = 0
KPD1 091434Z 35003KT M04/M08 A3036 RMK A01 T10361077  RH  073%=      5-min Rain = 0
KPD1 091435Z 35003KT M04/M08 A3036 RMK A01 T10351077  RH  073%=      5-min Rain = 0
KPD1 091436Z 35003KT M04/M08 A3036 RMK A01 T10351077  RH  072%=      5-min Rain = 0
KPD1 091437Z 35003KT M03/M08 A3036 RMK A01 T10341077  RH  072%=      5-min Rain = 0
KPD1 091438Z 35002KT M03/M08 A3036 RMK A01 T10331077  RH  072%=      5-min Rain = 0
KPD1 091439Z 36002KT M03/M08 A3036 RMK A01 T10331077  RH  071%=      5-min Rain = 0
KPD1 091440Z 35002KT M03/M08 A3036 RMK A01 T10321077  RH  071%=      5-min Rain = 0
KPD1 091441Z 34002KT M03/M08 A3036 RMK A01 T10311075  RH  071%=      5-min Rain = 0
KPD1 091442Z 34002KT M03/M07 A3036 RMK A01 T10301074  RH  071%=      5-min Rain = 0
KPD1 091443Z 33002KT M03/M08 A3036 RMK A01 T10291075  RH  071%=      5-min Rain = 0
KPD1 091444Z 34002KT M03/M07 A3036 RMK A01 T10281074  RH  071%=      5-min Rain = 0
KPD1 091445Z 35002KT M03/M07 A3036 RMK A01 T10281074  RH  070%=      5-min Rain = 0
KPD1 091446Z 34002KT M03/M07 A3036 RMK A01 T10271073  RH  070%=      5-min Rain = 0
KPD1 091447Z 34002KT M03/M07 A3036 RMK A01 T10251072  RH  070%=      5-min Rain = 0
KPD1 091448Z 34002KT M03/M07 A3036 RMK A01 T10251073  RH  070%=      5-min Rain = 0
KPD1 091449Z 35001KT M02/M07 A3036 RMK A01 T10241072  RH  070%=      5-min Rain = 0
KPD1 091450Z 35001KT M02/M07 A3036 RMK A01 T10231072  RH  069%=      5-min Rain = 0
KPD1 091451Z 35001KT M02/M07 A3036 RMK A01 T10231072  RH  069%=      5-min Rain = 0
KPD1 091452Z 35001KT M02/M07 A3036 RMK A01 T10221072  RH  069%=      5-min Rain = 0
KPD1 091453Z 34002KT M02/M07 A3036 RMK A01 T10221072  RH  068%=      5-min Rain = 0
KPD1 091454Z 33002KT M02/M07 A3036 RMK A01 T10221072  RH  068%=      5-min Rain = 0
KPD1 091455Z 34001KT M02/M07 A3036 RMK A01 T10211073  RH  068%=      5-min Rain = 0
KPD1 091456Z 01001KT M02/M07 A3036 RMK A01 T10211073  RH  068%=      5-min Rain = 0
KPD1 091457Z 35000KT M02/M07 A3036 RMK A01 T10201072  RH  068%=      5-min Rain = 0
KPD1 091458Z 35002KT M02/M07 A3036 RMK A01 T10191071  RH  068%=      5-min Rain = 0
KPD1 091459Z 03000KT M02/M07 A3036 RMK A01 T10181070  RH  068%=      5-min Rain = 0
KPD1 091500Z 34002KT M02/M07 A3036 RMK A01 T10181071  RH  067%=      5-min Rain = 0
KPD1 091501Z 33002KT M02/M07 A3036 RMK A01 T10171071  RH  067%=      5-min Rain = 0
KPD1 091502Z 35002KT M02/M07 A3036 RMK A01 T10171070  RH  067%=      5-min Rain = 0
KPD1 091503Z 34002KT M02/M07 A3036 RMK A01 T10161070  RH  067%=      5-min Rain = 0
KPD1 091504Z 33003KT M02/M07 A3036 RMK A01 T10151069  RH  067%=      5-min Rain = 0
KPD1 091505Z 34001KT M02/M07 A3036 RMK A01 T10151070  RH  066%=      5-min Rain = 0
KPD1 091506Z 32002KT M01/M07 A3036 RMK A01 T10141070  RH  066%=      5-min Rain = 0
KPD1 091507Z 31001KT M01/M07 A3036 RMK A01 T10141069  RH  066%=      5-min Rain = 0
KPD1 091508Z 33002KT M01/M07 A3036 RMK A01 T10131068  RH  066%=      5-min Rain = 0
KPD1 091509Z 33002KT M01/M07 A3037 RMK A01 T10131070  RH  065%=      5-min Rain = 0
KPD1 091510Z 33001KT M01/M07 A3037 RMK A01 T10121070  RH  065%=      5-min Rain = 0
KPD1 091511Z 33000KT M01/M07 A3037 RMK A01 T10111068  RH  065%=      5-min Rain = 0
KPD1 091512Z 32001KT M01/M07 A3037 RMK A01 T10101067  RH  065%=      5-min Rain = 0
KPD1 091513Z 33002KT M01/M07 A3037 RMK A01 T10091066  RH  065%=      5-min Rain = 0
KPD1 091514Z 33002KT M01/M07 A3037 RMK A01 T10081066  RH  065%=      5-min Rain = 0
KPD1 091515Z 32001KT M01/M07 A3037 RMK A01 T10081066  RH  065%=      5-min Rain = 0
KPD1 091516Z 31000KT M01/M07 A3037 RMK A01 T10071065  RH  065%=      5-min Rain = 0
KPD1 091517Z 00000KT M01/M06 A3037 RMK A01 T10051064  RH  064%=      5-min Rain = 0
KPD1 091518Z 00000KT M00/M06 A3037 RMK A01 T10021062  RH  064%=      5-min Rain = 0
KPD1 091519Z 00000KT 00/M06 A3037 RMK A01 T00021061  RH  063%=      5-min Rain = 0
KPD1 091520Z 00000KT 01/M06 A3037 RMK A01 T00061060  RH  061%=      5-min Rain = 0
KPD1 091521Z 00000KT 01/M06 A3037 RMK A01 T00061062  RH  060%=      5-min Rain = 0
KPD1 091522Z 00000KT 01/M06 A3037 RMK A01 T00061064  RH  059%=      5-min Rain = 0
KPD1 091523Z 00000KT 01/M07 A3037 RMK A01 T00051065  RH  059%=      5-min Rain = 0
KPD1 091524Z 13001KT 01/M06 A3037 RMK A01 T00061062  RH  060%=      5-min Rain = 0
KPD1 091525Z 12000KT 01/M06 A3037 RMK A01 T00081062  RH  059%=      5-min Rain = 0
KPD1 091526Z 00000KT 01/M06 A3037 RMK A01 T00081063  RH  059%=      5-min Rain = 0
KPD1 091527Z 00000KT 01/M06 A3037 RMK A01 T00081064  RH  059%=      5-min Rain = 0
KPD1 091528Z 16000KT 01/M06 A3037 RMK A01 T00081064  RH  059%=      5-min Rain = 0
KPD1 091529Z 15000KT 01/M06 A3037 RMK A01 T00091062  RH  059%=      5-min Rain = 0
KPD1 091530Z 18000KT 01/M06 A3037 RMK A01 T00101061  RH  059%=      5-min Rain = 0
KPD1 091531Z 17001KT 01/M06 A3037 RMK A01 T00111061  RH  058%=      5-min Rain = 0
KPD1 091532Z 19000KT 01/M06 A3037 RMK A01 T00121062  RH  058%=      5-min Rain = 0
KPD1 091533Z 15000KT 01/M06 A3037 RMK A01 T00111061  RH  059%=      5-min Rain = 0
KPD1 091534Z 17000KT 01/M06 A3037 RMK A01 T00091064  RH  058%=      5-min Rain = 0
KPD1 091535Z 14001KT 01/M06 A3037 RMK A01 T00091063  RH  059%=      5-min Rain = 0
KPD1 091536Z 14001KT 01/M06 A3037 RMK A01 T00101060  RH  059%=      5-min Rain = 0
KPD1 091537Z 17001KT 01/M06 A3037 RMK A01 T00111062  RH  058%=      5-min Rain = 0
KPD1 091538Z 15000KT 01/M06 A3037 RMK A01 T00111063  RH  058%=      5-min Rain = 0
KPD1 091539Z 12000KT 01/M06 A3037 RMK A01 T00111063  RH  058%=      5-min Rain = 0
KPD1 091540Z 14000KT 01/M06 A3037 RMK A01 T00121059  RH  059%=      5-min Rain = 0
KPD1 091541Z 11000KT 02/M06 A3037 RMK A01 T00151056  RH  059%=      5-min Rain = 0
KPD1 091542Z 11001KT 02/M06 A3037 RMK A01 T00161060  RH  057%=      5-min Rain = 0
KPD1 091543Z 10000KT 02/M06 A3037 RMK A01 T00151062  RH  056%=      5-min Rain = 0
KPD1 091544Z 12002KT 02/M06 A3037 RMK A01 T00151061  RH  057%=      5-min Rain = 0
KPD1 091545Z 11001KT 01/M06 A3037 RMK A01 T00141064  RH  056%=      5-min Rain = 0
KPD1 091546Z 12001KT 01/M06 A3037 RMK A01 T00121064  RH  057%=      5-min Rain = 0
KPD1 091547Z 00000KT 01/M07 A3038 RMK A01 T00131065  RH  056%=      5-min Rain = 0
KPD1 091548Z 18000KT 01/M06 A3038 RMK A01 T00131064  RH  057%=      5-min Rain = 0
KPD1 091549Z 18001KT 01/M06 A3038 RMK A01 T00141062  RH  057%=      5-min Rain = 0
KPD1 091550Z 18001KT 01/M06 A3038 RMK A01 T00131064  RH  057%=      5-min Rain = 0
KPD1 091551Z 23000KT 01/M07 A3038 RMK A01 T00111065  RH  057%=      5-min Rain = 0
KPD1 091552Z 24000KT 01/M07 A3038 RMK A01 T00101065  RH  057%=      5-min Rain = 0
KPD1 091553Z 00000KT 01/M06 A3038 RMK A01 T00101063  RH  058%=      5-min Rain = 0
KPD1 091554Z 00000KT 01/M06 A3038 RMK A01 T00121059  RH  059%=      5-min Rain = 0
KPD1 091555Z 00000KT 01/M06 A3038 RMK A01 T00131060  RH  058%=      5-min Rain = 0
KPD1 091556Z 00000KT 01/M06 A3038 RMK A01 T00141059  RH  058%=      5-min Rain = 0
KPD1 091557Z 00000KT 02/M05 A3038 RMK A01 T00181054  RH  059%=      5-min Rain = 0
KPD1 091558Z 31001KT 02/M05 A3038 RMK A01 T00221052  RH  058%=      5-min Rain = 0
KPD1 091559Z 07000KT 02/M06 A3038 RMK A01 T00221055  RH  057%=      5-min Rain = 0
KPD1 091600Z 06000KT 02/M05 A3038 RMK A01 T00231054  RH  057%=      5-min Rain = 0
KPD1 091601Z 07000KT 02/M06 A3038 RMK A01 T00241056  RH  056%=      5-min Rain = 0
KPD1 091602Z 06001KT 02/M06 A3038 RMK A01 T00231056  RH  056%=      5-min Rain = 0
KPD1 091603Z 07000KT 02/M06 A3038 RMK A01 T00231056  RH  056%=      5-min Rain = 0
KPD1 091604Z 06000KT 02/M06 A3038 RMK A01 T00221056  RH  056%=      5-min Rain = 0
KPD1 091605Z 08001KT 02/M06 A3038 RMK A01 T00231055  RH  057%=      5-min Rain = 0
KPD1 091606Z 06000KT 02/M06 A3038 RMK A01 T00221055  RH  056%=      5-min Rain = 0
KPD1 091607Z 00000KT 03/M05 A3038 RMK A01 T00251053  RH  057%=      5-min Rain = 0
KPD1 091608Z 05000KT 03/M05 A3038 RMK A01 T00271052  RH  056%=      5-min Rain = 0
KPD1 091609Z 02001KT 03/M05 A3038 RMK A01 T00301050  RH  056%=      5-min Rain = 0
KPD1 091610Z 35001KT 03/M05 A3038 RMK A01 T00311051  RH  055%=      5-min Rain = 0
KPD1 091611Z 36001KT 03/M05 A3038 RMK A01 T00311053  RH  054%=      5-min Rain = 0
KPD1 091612Z 10001KT 03/M05 A3038 RMK A01 T00311051  RH  055%=      5-min Rain = 0
KPD1 091613Z 08001KT 03/M05 A3038 RMK A01 T00321051  RH  054%=      5-min Rain = 0
KPD1 091614Z 03001KT 03/M05 A3038 RMK A01 T00331053  RH  053%=      5-min Rain = 0
KPD1 091615Z 04001KT 03/M05 A3038 RMK A01 T00321054  RH  053%=      5-min Rain = 0
KPD1 091616Z 06000KT 03/M05 A3038 RMK A01 T00321052  RH  054%=      5-min Rain = 0
KPD1 091617Z 04001KT 03/M05 A3038 RMK A01 T00331052  RH  054%=      5-min Rain = 0
KPD1 091618Z 05001KT 03/M06 A3038 RMK A01 T00321055  RH  053%=      5-min Rain = 0
KPD1 091619Z 00000KT 03/M06 A3038 RMK A01 T00321056  RH  053%=      5-min Rain = 0
KPD1 091620Z 06002KT 03/M06 A3038 RMK A01 T00311056  RH  053%=      5-min Rain = 0
KPD1 091621Z 04002KT 03/M06 A3038 RMK A01 T00311055  RH  053%=      5-min Rain = 0
KPD1 091622Z 05000KT 03/M06 A3038 RMK A01 T00301056  RH  053%=      5-min Rain = 0
KPD1 091623Z 02002KT 03/M06 A3038 RMK A01 T00291058  RH  053%=      5-min Rain = 0
KPD1 091624Z 00002KT 03/M06 A3039 RMK A01 T00291057  RH  053%=      5-min Rain = 0
KPD1 091625Z 35003KT 03/M06 A3039 RMK A01 T00291056  RH  054%=      5-min Rain = 0
KPD1 091626Z 36003KT 03/M06 A3039 RMK A01 T00291056  RH  053%=      5-min Rain = 0
KPD1 091627Z 00003KT 03/M06 A3039 RMK A01 T00291058  RH  053%=      5-min Rain = 0
KPD1 091628Z 00002KT 03/M06 A3039 RMK A01 T00291057  RH  053%=      5-min Rain = 0
KPD1 091629Z 36003KT 03/M06 A3039 RMK A01 T00301056  RH  053%=      5-min Rain = 0
KPD1 091630Z 35002KT 03/M06 A3039 RMK A01 T00311055  RH  053%=      5-min Rain = 0
KPD1 091631Z 35002KT 03/M06 A3039 RMK A01 T00321055  RH  053%=      5-min Rain = 0
KPD1 091632Z 34002KT 03/M06 A3039 RMK A01 T00321057  RH  052%=      5-min Rain = 0
KPD1 091633Z 02001KT 03/M06 A3039 RMK A01 T00321056  RH  052%=      5-min Rain = 0
KPD1 091634Z 03002KT 03/M06 A3039 RMK A01 T00321056  RH  052%=      5-min Rain = 0
KPD1 091635Z 01003KT 03/M06 A3039 RMK A01 T00321055  RH  053%=      5-min Rain = 0
KPD1 091636Z 00003KT 03/M06 A3039 RMK A01 T00331055  RH  052%=      5-min Rain = 0
KPD1 091637Z 00003KT 03/M05 A3038 RMK A01 T00341054  RH  052%=      5-min Rain = 0
KPD1 091638Z 00003KT 04/M05 A3038 RMK A01 T00371051  RH  053%=      5-min Rain = 0
KPD1 091639Z 01004KT 04/M05 A3038 RMK A01 T00401050  RH  052%=      5-min Rain = 0
KPD1 091640Z 35004KT 04/M05 A3038 RMK A01 T00401052  RH  051%=      5-min Rain = 0
KPD1 091641Z 35003KT 04/M05 A3038 RMK A01 T00391053  RH  051%=      5-min Rain = 0
KPD1 091642Z 03001KT 04/M05 A3038 RMK A01 T00391052  RH  051%=      5-min Rain = 0
KPD1 091643Z 36002KT 04/M05 A3038 RMK A01 T00401051  RH  051%=      5-min Rain = 0
KPD1 091644Z 00002KT 04/M05 A3038 RMK A01 T00421050  RH  051%=      5-min Rain = 0
KPD1 091645Z 05001KT 04/M05 A3038 RMK A01 T00431050  RH  051%=      5-min Rain = 0
KPD1 091646Z 02003KT 04/M05 A3038 RMK A01 T00421053  RH  050%=      5-min Rain = 0
KPD1 091647Z 35002KT 04/M05 A3038 RMK A01 T00411052  RH  050%=      5-min Rain = 0
KPD1 091648Z 01003KT 04/M05 A3038 RMK A01 T00411051  RH  051%=      5-min Rain = 0
KPD1 091649Z 32004KT 04/M05 A3038 RMK A01 T00421051  RH  051%=      5-min Rain = 0
KPD1 091650Z 33004KT 04/M05 A3038 RMK A01 T00441048  RH  051%=      5-min Rain = 0
KPD1 091651Z 34005KT 05/M05 A3038 RMK A01 T00461048  RH  050%=      5-min Rain = 0
KPD1 091652Z 33005KT 05/M05 A3038 RMK A01 T00461050  RH  050%=      5-min Rain = 0
KPD1 091653Z 33004KT 05/M05 A3038 RMK A01 T00451051  RH  050%=      5-min Rain = 0
KPD1 091654Z 32004KT 04/M05 A3038 RMK A01 T00441051  RH  050%=      5-min Rain = 0
KPD1 091655Z 33004KT 04/M05 A3038 RMK A01 T00441051  RH  050%=      5-min Rain = 0
KPD1 091656Z 33005KT 04/M05 A3038 RMK A01 T00441049  RH  051%=      5-min Rain = 0
KPD1 091657Z 35002KT 05/M05 A3038 RMK A01 T00451050  RH  050%=      5-min Rain = 0
KPD1 091658Z 36003KT 05/M05 A3038 RMK A01 T00461049  RH  050%=      5-min Rain = 0
KPD1 091659Z 36004KT 05/M05 A3038 RMK A01 T00481047  RH  050%=      5-min Rain = 0
KPD1 091700Z 34004KT 05/M05 A3038 RMK A01 T00501048  RH  049%=      5-min Rain = 0
KPD1 091701Z 34003KT 05/M05 A3038 RMK A01 T00501049  RH  049%=      5-min Rain = 0
KPD1 091702Z 33002KT 05/M05 A3038 RMK A01 T00501050  RH  049%=      5-min Rain = 0
KPD1 091703Z 33004KT 05/M05 A3038 RMK A01 T00511049  RH  049%=      5-min Rain = 0
KPD1 091704Z 32005KT 05/M05 A3038 RMK A01 T00521047  RH  049%=      5-min Rain = 0
KPD1 091705Z 00005KT 05/M05 A3038 RMK A01 T00541045  RH  049%=      5-min Rain = 0
KPD1 091706Z 36004KT 06/M05 A3038 RMK A01 T00551047  RH  048%=      5-min Rain = 0
KPD1 091707Z 02006KT 05/M05 A3038 RMK A01 T00541049  RH  047%=      5-min Rain = 0
KPD1 091708Z 00003KT 05/M05 A3038 RMK A01 T00511050  RH  048%=      5-min Rain = 0
KPD1 091709Z 33003KT 05/M05 A3038 RMK A01 T00521048  RH  049%=      5-min Rain = 0
KPD1 091710Z 33005KT 05/M05 A3038 RMK A01 T00531047  RH  048%=      5-min Rain = 0
KPD1 091711Z 32006KT 05/M05 A3038 RMK A01 T00541049  RH  048%=      5-min Rain = 0
KPD1 091712Z 33006KT 05/M05 A3038 RMK A01 T00541047  RH  048%=      5-min Rain = 0
KPD1 091713Z 00005KT 06/M05 A3038 RMK A01 T00571046  RH  048%=      5-min Rain = 0
KPD1 091714Z 34003KT 06/M05 A3038 RMK A01 T00561048  RH  047%=      5-min Rain = 0
KPD1 091715Z 35004KT 06/M05 A3038 RMK A01 T00561048  RH  047%=      5-min Rain = 0
KPD1 091716Z 35005KT 06/M05 A3038 RMK A01 T00561049  RH  047%=      5-min Rain = 0
KPD1 091717Z 01004KT 06/M05 A3038 RMK A01 T00561048  RH  047%=      5-min Rain = 0
KPD1 091718Z 02004KT 06/M05 A3038 RMK A01 T00551049  RH  047%=      5-min Rain = 0
KPD1 091719Z 36003KT 06/M05 A3038 RMK A01 T00551049  RH  047%=      5-min Rain = 0
KPD1 091720Z 00005KT 06/M05 A3038 RMK A01 T00571046  RH  047%=      5-min Rain = 0
KPD1 091721Z 33006KT 06/M05 A3038 RMK A01 T00591046  RH  047%=      5-min Rain = 0
KPD1 091722Z 34006KT 06/M05 A3038 RMK A01 T00601048  RH  046%=      5-min Rain = 0
KPD1 091723Z 34005KT 06/M05 A3038 RMK A01 T00591049  RH  046%=      5-min Rain = 0
KPD1 091724Z 34006KT 06/M05 A3038 RMK A01 T00571050  RH  046%=      5-min Rain = 0
KPD1 091725Z 35004KT 06/M05 A3038 RMK A01 T00591047  RH  047%=      5-min Rain = 0
KPD1 091726Z 01004KT 06/M04 A3038 RMK A01 T00621044  RH  046%=      5-min Rain = 0
KPD1 091727Z 00005KT 06/M05 A3038 RMK A01 T00641045  RH  046%=      5-min Rain = 0
KPD1 091728Z 02007KT 07/M05 A3038 RMK A01 T00651046  RH  045%=      5-min Rain = 0
KPD1 091729Z 01006KT 06/M05 A3038 RMK A01 T00621050  RH  044%=      5-min Rain = 0
KPD1 091730Z 02004KT 06/M05 A3038 RMK A01 T00601050  RH  045%=      5-min Rain = 0
KPD1 091731Z 02004KT 06/M05 A3038 RMK A01 T00601050  RH  045%=      5-min Rain = 0
KPD1 091732Z 02003KT 06/M05 A3038 RMK A01 T00591050  RH  045%=      5-min Rain = 0
KPD1 091733Z 03006KT 06/M05 A3038 RMK A01 T00601048  RH  046%=      5-min Rain = 0
KPD1 091734Z 03004KT 06/M05 A3038 RMK A01 T00611049  RH  045%=      5-min Rain = 0
KPD1 091735Z 00004KT 06/M05 A3038 RMK A01 T00611049  RH  045%=      5-min Rain = 0
KPD1 091736Z 36004KT 07/M04 A3038 RMK A01 T00651043  RH  046%=      5-min Rain = 0
KPD1 091737Z 36004KT 07/M05 A3038 RMK A01 T00681045  RH  045%=      5-min Rain = 0
KPD1 091738Z 00006KT 07/M05 A3038 RMK A01 T00681046  RH  044%=      5-min Rain = 0
KPD1 091739Z 01005KT 07/M05 A3038 RMK A01 T00671049  RH  043%=      5-min Rain = 0
KPD1 091740Z 02002KT 07/M05 A3038 RMK A01 T00671049  RH  043%=      5-min Rain = 0
KPD1 091741Z 05003KT 07/M05 A3037 RMK A01 T00691047  RH  043%=      5-min Rain = 0
KPD1 091742Z 02003KT 07/M05 A3037 RMK A01 T00691048  RH  043%=      5-min Rain = 0
KPD1 091743Z 02005KT 07/M05 A3037 RMK A01 T00691048  RH  043%=      5-min Rain = 0
KPD1 091744Z 02005KT 07/M05 A3037 RMK A01 T00671049  RH  043%=      5-min Rain = 0
KPD1 091745Z 02006KT 07/M05 A3037 RMK A01 T00671047  RH  044%=      5-min Rain = 0
KPD1 091746Z 03005KT 07/M05 A3037 RMK A01 T00671048  RH  044%=      5-min Rain = 0
KPD1 091747Z 02005KT 07/M05 A3037 RMK A01 T00681047  RH  044%=      5-min Rain = 0
KPD1 091748Z 01006KT 07/M05 A3037 RMK A01 T00681047  RH  043%=      5-min Rain = 0
KPD1 091749Z 03004KT 07/M05 A3037 RMK A01 T00671049  RH  044%=      5-min Rain = 0
KPD1 091750Z 02004KT 07/M05 A3037 RMK A01 T00661048  RH  044%=      5-min Rain = 0
KPD1 091751Z 00004KT 07/M05 A3037 RMK A01 T00661048  RH  044%=      5-min Rain = 0
KPD1 091752Z 00005KT 07/M05 A3037 RMK A01 T00661049  RH  044%=      5-min Rain = 0
KPD1 091753Z 35004KT 07/M05 A3037 RMK A01 T00661048  RH  044%=      5-min Rain = 0
KPD1 091754Z 36004KT 07/M05 A3037 RMK A01 T00691045  RH  044%=      5-min Rain = 0
KPD1 091755Z 02002KT 07/M05 A3037 RMK A01 T00691048  RH  043%=      5-min Rain = 0
KPD1 091756Z 02004KT 07/M05 A3037 RMK A01 T00681048  RH  043%=      5-min Rain = 0
KPD1 091757Z 03005KT 07/M05 A3037 RMK A01 T00681047  RH  043%=      5-min Rain = 0
KPD1 091758Z 04007KT 07/M05 A3037 RMK A01 T00681048  RH  043%=      5-min Rain = 0
KPD1 091759Z 05006KT 07/M05 A3037 RMK A01 T00681051  RH  042%=      5-min Rain = 0
KPD1 091800Z 04007KT 07/M05 A3037 RMK A01 T00691053  RH  041%=      5-min Rain = 0
KPD1 091801Z 03004KT 07/M05 A3037 RMK A01 T00691054  RH  041%=      5-min Rain = 0
KPD1 091802Z 35004KT 07/M05 A3037 RMK A01 T00701051  RH  042%=      5-min Rain = 0
KPD1 091803Z 01005KT 07/M05 A3037 RMK A01 T00731048  RH  042%=      5-min Rain = 0
KPD1 091804Z 02007KT 08/M05 A3037 RMK A01 T00751047  RH  041%=      5-min Rain = 0
KPD1 091805Z 01007KT 08/M05 A3037 RMK A01 T00761048  RH  041%=      5-min Rain = 0
KPD1 091806Z 00007KT 07/M05 A3037 RMK A01 T00741050  RH  041%=      5-min Rain = 0
KPD1 091807Z 00006KT 07/M05 A3037 RMK A01 T00731050  RH  041%=      5-min Rain = 0
KPD1 091808Z 35006KT 07/M05 A3037 RMK A01 T00711051  RH  042%=      5-min Rain = 0
KPD1 091809Z 35005KT 07/M05 A3037 RMK A01 T00691052  RH  042%=      5-min Rain = 0
KPD1 091810Z 01007KT 07/M05 A3036 RMK A01 T00691050  RH  042%=      5-min Rain = 0
KPD1 091811Z 00007KT 07/M05 A3036 RMK A01 T00701049  RH  042%=      5-min Rain = 0
KPD1 091812Z 00006KT 07/M05 A3036 RMK A01 T00691051  RH  042%=      5-min Rain = 0
KPD1 091813Z 01006KT 07/M05 A3036 RMK A01 T00691050  RH  042%=      5-min Rain = 0
KPD1 091814Z 02005KT 07/M05 A3036 RMK A01 T00701049  RH  042%=      5-min Rain = 0
KPD1 091815Z 34005KT 07/M05 A3036 RMK A01 T00711049  RH  042%=      5-min Rain = 0
KPD1 091816Z 34003KT 07/M05 A3036 RMK A01 T00711050  RH  042%=      5-min Rain = 0
KPD1 091817Z 33003KT 07/M05 A3036 RMK A01 T00701050  RH  042%=      5-min Rain = 0
KPD1 091818Z 01004KT 07/M05 A3036 RMK A01 T00701048  RH  043%=      5-min Rain = 0
KPD1 091819Z 36005KT 07/M05 A3036 RMK A01 T00731047  RH  042%=      5-min Rain = 0
KPD1 091820Z 35005KT 07/M05 A3036 RMK A01 T00731049  RH  042%=      5-min Rain = 0
KPD1 091821Z 01006KT 07/M05 A3036 RMK A01 T00731048  RH  042%=      5-min Rain = 0
KPD1 091822Z 36005KT 07/M05 A3036 RMK A01 T00741051  RH  041%=      5-min Rain = 0
KPD1 091823Z 36004KT 07/M05 A3036 RMK A01 T00741050  RH  041%=      5-min Rain = 0
KPD1 091824Z 34004KT 07/M05 A3036 RMK A01 T00741051  RH  041%=      5-min Rain = 0
KPD1 091825Z 02004KT 08/M05 A3036 RMK A01 T00751050  RH  041%=      5-min Rain = 0
KPD1 091826Z 04004KT 08/M05 A3036 RMK A01 T00761048  RH  041%=      5-min Rain = 0
KPD1 091827Z 00003KT 08/M05 A3036 RMK A01 T00771050  RH  040%=      5-min Rain = 0
KPD1 091828Z 34001KT 08/M05 A3035 RMK A01 T00781048  RH  040%=      5-min Rain = 0
KPD1 091829Z 04002KT 08/M05 A3035 RMK A01 T00791049  RH  040%=      5-min Rain = 0
KPD1 091830Z 01005KT 08/M05 A3035 RMK A01 T00791051  RH  039%=      5-min Rain = 0
KPD1 091831Z 36006KT 08/M06 A3035 RMK A01 T00781055  RH  038%=      5-min Rain = 0
KPD1 091832Z 35004KT 08/M06 A3035 RMK A01 T00761058  RH  038%=      5-min Rain = 0
KPD1 091833Z 02006KT 08/M06 A3035 RMK A01 T00751058  RH  038%=      5-min Rain = 0
KPD1 091834Z 02006KT 08/M06 A3035 RMK A01 T00761057  RH  038%=      5-min Rain = 0
KPD1 091835Z 36007KT 08/M06 A3035 RMK A01 T00751055  RH  039%=      5-min Rain = 0
KPD1 091836Z 01005KT 08/M05 A3035 RMK A01 T00771053  RH  039%=      5-min Rain = 0
KPD1 091837Z 02005KT 08/M05 A3035 RMK A01 T00771053  RH  039%=      5-min Rain = 0
KPD1 091838Z 01006KT 08/M05 A3035 RMK A01 T00771054  RH  039%=      5-min Rain = 0
KPD1 091839Z 01005KT 08/M05 A3035 RMK A01 T00771054  RH  039%=      5-min Rain = 0
KPD1 091840Z 00006KT 08/M06 A3035 RMK A01 T00761055  RH  039%=      5-min Rain = 0
KPD1 091841Z 00008KT 08/M06 A3035 RMK A01 T00761055  RH  039%=      5-min Rain = 0
KPD1 091842Z 36006KT 08/M05 A3035 RMK A01 T00761054  RH  039%=      5-min Rain = 0
KPD1 091843Z 00005KT 08/M05 A3035 RMK A01 T00771053  RH  039%=      5-min Rain = 0
KPD1 091844Z 36006KT 08/M05 A3035 RMK A01 T00781052  RH  039%=      5-min Rain = 0
KPD1 091845Z 36006KT 08/M05 A3035 RMK A01 T00791053  RH  039%=      5-min Rain = 0
KPD1 091846Z 36004KT 08/M05 A3034 RMK A01 T00811052  RH  038%=      5-min Rain = 0
KPD1 091847Z 00003KT 08/M05 A3034 RMK A01 T00831053  RH  038%=      5-min Rain = 0
KPD1 091848Z 04005KT 08/M05 A3034 RMK A01 T00831053  RH  038%=      5-min Rain = 0
KPD1 091849Z 04006KT 08/M05 A3034 RMK A01 T00841054  RH  037%=      5-min Rain = 0
KPD1 091850Z 05004KT 08/M05 A3034 RMK A01 T00841054  RH  037%=      5-min Rain = 0
KPD1 091851Z 03005KT 08/M05 A3034 RMK A01 T00841054  RH  037%=      5-min Rain = 0
KPD1 091852Z 04008KT 08/M06 A3034 RMK A01 T00831056  RH  037%=      5-min Rain = 0
KPD1 091853Z 03005KT 08/M05 A3034 RMK A01 T00821054  RH  038%=      5-min Rain = 0
KPD1 091854Z 03006KT 08/M05 A3034 RMK A01 T00841052  RH  038%=      5-min Rain = 0
KPD1 091855Z 04005KT 08/M06 A3034 RMK A01 T00841055  RH  037%=      5-min Rain = 0
KPD1 091856Z 05007KT 08/M06 A3034 RMK A01 T00831055  RH  037%=      5-min Rain = 0
KPD1 091857Z 04006KT 08/M06 A3034 RMK A01 T00821056  RH  037%=      5-min Rain = 0
KPD1 091858Z 02003KT 08/M06 A3034 RMK A01 T00811057  RH  037%=      5-min Rain = 0
KPD1 091859Z 04003KT 08/M06 A3034 RMK A01 T00811056  RH  037%=      5-min Rain = 0
KPD1 091900Z 06003KT 08/M05 A3034 RMK A01 T00821054  RH  038%=      5-min Rain = 0
KPD1 091901Z 05005KT 08/M06 A3034 RMK A01 T00831055  RH  037%=      5-min Rain = 0
KPD1 091902Z 07005KT 08/M06 A3034 RMK A01 T00811058  RH  037%=      5-min Rain = 0
KPD1 091903Z 08006KT 08/M06 A3034 RMK A01 T00811057  RH  037%=      5-min Rain = 0
KPD1 091904Z 06004KT 08/M06 A3034 RMK A01 T00811057  RH  037%=      5-min Rain = 0
KPD1 091905Z 05006KT 08/M06 A3034 RMK A01 T00821056  RH  037%=      5-min Rain = 0
KPD1 091906Z 04005KT 08/M06 A3034 RMK A01 T00831056  RH  037%=      5-min Rain = 0
KPD1 091907Z 04005KT 08/M06 A3034 RMK A01 T00831055  RH  037%=      5-min Rain = 0
KPD1 091908Z 03004KT 08/M06 A3034 RMK A01 T00841056  RH  037%=      5-min Rain = 0
KPD1 091909Z 02007KT 08/M06 A3034 RMK A01 T00831058  RH  036%=      5-min Rain = 0
KPD1 091910Z 03005KT 08/M06 A3034 RMK A01 T00811057  RH  037%=      5-min Rain = 0
KPD1 091911Z 04004KT 08/M06 A3034 RMK A01 T00801058  RH  037%=      5-min Rain = 0
KPD1 091912Z 04004KT 08/M06 A3034 RMK A01 T00801058  RH  037%=      5-min Rain = 0
KPD1 091913Z 06003KT 08/M06 A3034 RMK A01 T00791057  RH  037%=      5-min Rain = 0
KPD1 091914Z 06004KT 08/M06 A3034 RMK A01 T00821055  RH  037%=      5-min Rain = 0
KPD1 091915Z 05004KT 08/M06 A3034 RMK A01 T00841055  RH  037%=      5-min Rain = 0
KPD1 091916Z 03004KT 08/M06 A3034 RMK A01 T00841055  RH  037%=      5-min Rain = 0
KPD1 091917Z 01005KT 09/M06 A3034 RMK A01 T00851055  RH  037%=      5-min Rain = 0
KPD1 091918Z 01006KT 09/M06 A3034 RMK A01 T00851055  RH  036%=      5-min Rain = 0
KPD1 091919Z 35005KT 09/M06 A3034 RMK A01 T00861058  RH  036%=      5-min Rain = 0
KPD1 091920Z 00005KT 09/M06 A3034 RMK A01 T00851059  RH  036%=      5-min Rain = 0
KPD1 091921Z 36003KT 09/M06 A3034 RMK A01 T00851059  RH  036%=      5-min Rain = 0
KPD1 091922Z 00004KT 08/M06 A3034 RMK A01 T00841060  RH  036%=      5-min Rain = 0
KPD1 091923Z 36002KT 08/M06 A3034 RMK A01 T00841061  RH  035%=      5-min Rain = 0
KPD1 091924Z 01002KT 08/M06 A3034 RMK A01 T00841060  RH  036%=      5-min Rain = 0
KPD1 091925Z 36003G8KT 08/M06 A3034 RMK A01 T00841062  RH  035%=      5-min Rain = 0
KPD1 091926Z 00007KT 08/M06 A3034 RMK A01 T00821063  RH  035%=      5-min Rain = 0
KPD1 091927Z 00007KT 08/M06 A3034 RMK A01 T00831060  RH  036%=      5-min Rain = 0
KPD1 091928Z 00005KT 08/M06 A3034 RMK A01 T00831058  RH  036%=      5-min Rain = 0
KPD1 091929Z 00003KT 08/M06 A3034 RMK A01 T00831056  RH  037%=      5-min Rain = 0
KPD1 091930Z 35001KT 08/M06 A3034 RMK A01 T00831057  RH  037%=      5-min Rain = 0
KPD1 091931Z 02002KT 08/M06 A3034 RMK A01 T00841055  RH  037%=      5-min Rain = 0
KPD1 091932Z 06003KT 09/M06 A3033 RMK A01 T00861056  RH  036%=      5-min Rain = 0
KPD1 091933Z 13001KT 09/M06 A3033 RMK A01 T00861059  RH  035%=      5-min Rain = 0
KPD1 091934Z 11001KT 09/M06 A3033 RMK A01 T00851059  RH  036%=      5-min Rain = 0
KPD1 091935Z 03003KT 09/M06 A3033 RMK A01 T00851057  RH  036%=      5-min Rain = 0
KPD1 091936Z 05001KT 09/M06 A3033 RMK A01 T00861057  RH  036%=      5-min Rain = 0
KPD1 091937Z 04002KT 09/M06 A3033 RMK A01 T00861057  RH  036%=      5-min Rain = 0
KPD1 091938Z 05002KT 09/M06 A3033 RMK A01 T00861058  RH  036%=      5-min Rain = 0
KPD1 091939Z 09002KT 09/M06 A3033 RMK A01 T00861057  RH  036%=      5-min Rain = 0
KPD1 091940Z 08001KT 09/M06 A3033 RMK A01 T00861057  RH  036%=      5-min Rain = 0
KPD1 091941Z 06002KT 09/M06 A3033 RMK A01 T00891055  RH  036%=      5-min Rain = 0
KPD1 091942Z 05003KT 09/M05 A3033 RMK A01 T00911054  RH  036%=      5-min Rain = 0
KPD1 091943Z 05003KT 09/M06 A3033 RMK A01 T00911056  RH  035%=      5-min Rain = 0
KPD1 091944Z 06001KT 09/M06 A3033 RMK A01 T00891059  RH  035%=      5-min Rain = 0
KPD1 091945Z 07003KT 09/M06 A3033 RMK A01 T00891057  RH  035%=      5-min Rain = 0
KPD1 091946Z 06004KT 09/M06 A3033 RMK A01 T00891058  RH  035%=      5-min Rain = 0
KPD1 091947Z 06003KT 09/M06 A3033 RMK A01 T00881059  RH  035%=      5-min Rain = 0
KPD1 091948Z 09003KT 09/M06 A3033 RMK A01 T00881057  RH  035%=      5-min Rain = 0
KPD1 091949Z 06002KT 09/M06 A3033 RMK A01 T00891057  RH  035%=      5-min Rain = 0
KPD1 091950Z 11001KT 09/M06 A3033 RMK A01 T00891057  RH  035%=      5-min Rain = 0
KPD1 091951Z 04003KT 09/M06 A3033 RMK A01 T00911056  RH  035%=      5-min Rain = 0
KPD1 091952Z 06002KT 09/M06 A3033 RMK A01 T00901059  RH  034%=      5-min Rain = 0
KPD1 091953Z 09001KT 09/M06 A3032 RMK A01 T00881059  RH  035%=      5-min Rain = 0
KPD1 091954Z 11000KT 09/M06 A3032 RMK A01 T00881059  RH  035%=      5-min Rain = 0
KPD1 091955Z 13001KT 09/M06 A3032 RMK A01 T00891058  RH  035%=      5-min Rain = 0
KPD1 091956Z 36000KT 09/M06 A3032 RMK A01 T00911057  RH  035%=      5-min Rain = 0
KPD1 091957Z 35000KT 09/M06 A3032 RMK A01 T00921057  RH  034%=      5-min Rain = 0
KPD1 091958Z 33002KT 09/M06 A3032 RMK A01 T00941055  RH  034%=      5-min Rain = 0
KPD1 091959Z 02004KT 09/M06 A3032 RMK A01 T00941057  RH  034%=      5-min Rain = 0
KPD1 092000Z 02005KT 10/M06 A3032 RMK A01 T00951057  RH  034%=      5-min Rain = 0
KPD1 092001Z 34004KT 09/M06 A3032 RMK A01 T00931058  RH  034%=      5-min Rain = 0
KPD1 092002Z 33001KT 09/M06 A3032 RMK A01 T00921059  RH  034%=      5-min Rain = 0
KPD1 092003Z 02003KT 09/M06 A3032 RMK A01 T00921059  RH  034%=      5-min Rain = 0
KPD1 092004Z 03005KT 09/M06 A3032 RMK A01 T00931059  RH  034%=      5-min Rain = 0
KPD1 092005Z 04003KT 09/M06 A3033 RMK A01 T00931060  RH  033%=      5-min Rain = 0
KPD1 092006Z 06002KT 09/M06 A3032 RMK A01 T00911062  RH  033%=      5-min Rain = 0
KPD1 092007Z 00004KT 09/M06 A3032 RMK A01 T00911061  RH  034%=      5-min Rain = 0
KPD1 092008Z 00005KT 09/M06 A3032 RMK A01 T00921060  RH  034%=      5-min Rain = 0
KPD1 092009Z 01004KT 09/M06 A3032 RMK A01 T00911059  RH  034%=      5-min Rain = 0
KPD1 092010Z 03003KT 09/M06 A3032 RMK A01 T00911058  RH  034%=      5-min Rain = 0
KPD1 092011Z 02004KT 09/M06 A3032 RMK A01 T00911060  RH  034%=      5-min Rain = 0
KPD1 092012Z 35003KT 09/M06 A3032 RMK A01 T00901062  RH  034%=      5-min Rain = 0
KPD1 092013Z 02003KT 09/M06 A3032 RMK A01 T00901060  RH  034%=      5-min Rain = 0
KPD1 092014Z 03004KT 09/M06 A3032 RMK A01 T00891063  RH  034%=      5-min Rain = 0
KPD1 092015Z 04003KT 09/M06 A3032 RMK A01 T00891062  RH  034%=      5-min Rain = 0
KPD1 092016Z 05004KT 09/M06 A3032 RMK A01 T00901061  RH  034%=      5-min Rain = 0
KPD1 092017Z 06005KT 09/M06 A3032 RMK A01 T00901061  RH  034%=      5-min Rain = 0
KPD1 092018Z 06003KT 09/M06 A3032 RMK A01 T00901060  RH  034%=      5-min Rain = 0
KPD1 092019Z 04001KT 09/M06 A3032 RMK A01 T00911060  RH  034%=      5-min Rain = 0
KPD1 092020Z 04000KT 09/M06 A3032 RMK A01 T00931059  RH  034%=      5-min Rain = 0
KPD1 092021Z 02001KT 09/M06 A3032 RMK A01 T00931060  RH  033%=      5-min Rain = 0
KPD1 092022Z 06002KT 09/M06 A3032 RMK A01 T00931060  RH  033%=      5-min Rain = 0
KPD1 092023Z 08001KT 09/M06 A3032 RMK A01 T00941060  RH  033%=      5-min Rain = 0
KPD1 092024Z 00000KT 09/M06 A3032 RMK A01 T00941060  RH  033%=      5-min Rain = 0
KPD1 092025Z 07002KT 09/M06 A3032 RMK A01 T00941061  RH  033%=      5-min Rain = 0
KPD1 092026Z 05005KT 09/M06 A3032 RMK A01 T00941060  RH  033%=      5-min Rain = 0
KPD1 092027Z 06004KT 10/M06 A3032 RMK A01 T00951059  RH  033%=      5-min Rain = 0
KPD1 092028Z 07004KT 09/M06 A3032 RMK A01 T00941060  RH  033%=      5-min Rain = 0
KPD1 092029Z 06005KT 09/M06 A3032 RMK A01 T00931061  RH  033%=      5-min Rain = 0
KPD1 092030Z 08003KT 09/M06 A3032 RMK A01 T00931060  RH  033%=      5-min Rain = 0
KPD1 092031Z 07003KT 09/M06 A3032 RMK A01 T00921061  RH  033%=      5-min Rain = 0
KPD1 092032Z 06004KT 09/M06 A3032 RMK A01 T00921060  RH  033%=      5-min Rain = 0
KPD1 092033Z 05003KT 09/M06 A3032 RMK A01 T00941059  RH  033%=      5-min Rain = 0
KPD1 092034Z 02004KT 10/M06 A3032 RMK A01 T00951059  RH  033%=      5-min Rain = 0
KPD1 092035Z 01003KT 10/M06 A3032 RMK A01 T00971057  RH  033%=      5-min Rain = 0
KPD1 092036Z 01004KT 10/M06 A3032 RMK A01 T01001055  RH  033%=      5-min Rain = 0
KPD1 092037Z 03007KT 10/M06 A3032 RMK A01 T01001060  RH  032%=      5-min Rain = 0
KPD1 092038Z 02001G6KT 10/M07 A3032 RMK A01 T00961065  RH  031%=      5-min Rain = 0
KPD1 092039Z 05001KT 09/M07 A3032 RMK A01 T00941065  RH  032%=      5-min Rain = 0
KPD1 092040Z 03004KT 09/M06 A3032 RMK A01 T00941063  RH  032%=      5-min Rain = 0
KPD1 092041Z 01003KT 10/M06 A3032 RMK A01 T00951062  RH  033%=      5-min Rain = 0
KPD1 092042Z 34005KT 10/M06 A3032 RMK A01 T00951061  RH  033%=      5-min Rain = 0
KPD1 092043Z 33004KT 10/M06 A3032 RMK A01 T00961063  RH  032%=      5-min Rain = 0
KPD1 092044Z 32002KT 10/M06 A3032 RMK A01 T00951064  RH  032%=      5-min Rain = 0
KPD1 092045Z 32001KT 10/M06 A3032 RMK A01 T00951064  RH  032%=      5-min Rain = 0
KPD1 092046Z 34001KT 10/M06 A3032 RMK A01 T00951063  RH  032%=      5-min Rain = 0
KPD1 092047Z 35000KT 10/M06 A3032 RMK A01 T00981061  RH  032%=      5-min Rain = 0
KPD1 092048Z 07002KT 10/M06 A3032 RMK A01 T01001059  RH  032%=      5-min Rain = 0
KPD1 092049Z 05003KT 10/M06 A3032 RMK A01 T01031057  RH  032%=      5-min Rain = 0
KPD1 092050Z 06002KT 10/M06 A3032 RMK A01 T01041057  RH  032%=      5-min Rain = 0
KPD1 092051Z 05004KT 11/M06 A3032 RMK A01 T01051057  RH  031%=      5-min Rain = 0
KPD1 092052Z 05008KT 10/M06 A3032 RMK A01 T01041060  RH  031%=      5-min Rain = 0
KPD1 092053Z 04008KT 10/M06 A3032 RMK A01 T01001062  RH  031%=      5-min Rain = 0
KPD1 092054Z 05007KT 10/M06 A3032 RMK A01 T00981062  RH  032%=      5-min Rain = 0
KPD1 092055Z 03004KT 10/M06 A3032 RMK A01 T00971061  RH  032%=      5-min Rain = 0
KPD1 092056Z 02004KT 10/M06 A3032 RMK A01 T00991057  RH  033%=      5-min Rain = 0
KPD1 092057Z 03005KT 10/M06 A3032 RMK A01 T01001057  RH  033%=      5-min Rain = 0
KPD1 092058Z 03004KT 10/M06 A3032 RMK A01 T01011058  RH  032%=      5-min Rain = 0
KPD1 092059Z 05004KT 10/M06 A3032 RMK A01 T01001060  RH  032%=      5-min Rain = 0
KPD1 092100Z 05004KT 10/M06 A3032 RMK A01 T01001061  RH  032%=      5-min Rain = 0
KPD1 092101Z 05004KT 10/M06 A3032 RMK A01 T01001061  RH  032%=      5-min Rain = 0
KPD1 092102Z 02004KT 10/M06 A3032 RMK A01 T01001059  RH  032%=      5-min Rain = 0
KPD1 092103Z 32003KT 10/M06 A3032 RMK A01 T01001061  RH  031%=      5-min Rain = 0
KPD1 092104Z 32001KT 10/M06 A3032 RMK A01 T01001064  RH  031%=      5-min Rain = 0
KPD1 092105Z 04004KT 10/M06 A3032 RMK A01 T00991063  RH  031%=      5-min Rain = 0
KPD1 092106Z 03004KT 10/M06 A3032 RMK A01 T01011061  RH  032%=      5-min Rain = 0
KPD1 092107Z 03004KT 10/M06 A3032 RMK A01 T01021059  RH  032%=      5-min Rain = 0
KPD1 092108Z 02004KT 10/M06 A3032 RMK A01 T01031060  RH  031%=      5-min Rain = 0
KPD1 092109Z 02002KT 10/M06 A3032 RMK A01 T01001063  RH  031%=      5-min Rain = 0
KPD1 092110Z 04002KT 10/M06 A3032 RMK A01 T01001062  RH  031%=      5-min Rain = 0
KPD1 092111Z 05004KT 10/M06 A3032 RMK A01 T01001063  RH  031%=      5-min Rain = 0
KPD1 092112Z 06003KT 10/M07 A3032 RMK A01 T00991065  RH  031%=      5-min Rain = 0
KPD1 092113Z 06003KT 10/M07 A3032 RMK A01 T00971067  RH  031%=      5-min Rain = 0
KPD1 092114Z 05004KT 10/M07 A3032 RMK A01 T00961068  RH  031%=      5-min Rain = 0
KPD1 092115Z 04004KT 10/M07 A3032 RMK A01 T00971065  RH  031%=      5-min Rain = 0
KPD1 092116Z 06006KT 10/M07 A3032 RMK A01 T00981065  RH  031%=      5-min Rain = 0
KPD1 092117Z 05005KT 10/M07 A3032 RMK A01 T00981065  RH  031%=      5-min Rain = 0
KPD1 092118Z 03004KT 10/M06 A3032 RMK A01 T00991064  RH  031%=      5-min Rain = 0
KPD1 092119Z 02004KT 10/M06 A3032 RMK A01 T00991064  RH  031%=      5-min Rain = 0
KPD1 092120Z 04002KT 10/M06 A3032 RMK A01 T00991064  RH  031%=      5-min Rain = 0
KPD1 092121Z 00002KT 10/M06 A3032 RMK A01 T01001064  RH  031%=      5-min Rain = 0
KPD1 092122Z 00004KT 10/M07 A3032 RMK A01 T01001065  RH  031%=      5-min Rain = 0
KPD1 092123Z 33004KT 10/M07 A3032 RMK A01 T01011066  RH  030%=      5-min Rain = 0
KPD1 092124Z 32003KT 10/M07 A3032 RMK A01 T01001066  RH  030%=      5-min Rain = 0
KPD1 092125Z 35003KT 10/M07 A3032 RMK A01 T00991068  RH  030%=      5-min Rain = 0
KPD1 092126Z 36002KT 10/M07 A3032 RMK A01 T00981068  RH  030%=      5-min Rain = 0
KPD1 092127Z 35004KT 10/M07 A3032 RMK A01 T00991066  RH  031%=      5-min Rain = 0
KPD1 092128Z 35003KT 10/M07 A3032 RMK A01 T01001066  RH  030%=      5-min Rain = 0
KPD1 092129Z 32003KT 10/M07 A3032 RMK A01 T01011065  RH  030%=      5-min Rain = 0
KPD1 092130Z 03004KT 10/M07 A3032 RMK A01 T01021067  RH  030%=      5-min Rain = 0
KPD1 092131Z 01006KT 10/M07 A3032 RMK A01 T01021068  RH  030%=      5-min Rain = 0
KPD1 092132Z 02004KT 10/M07 A3032 RMK A01 T01011070  RH  029%=      5-min Rain = 0
KPD1 092133Z 35003KT 10/M07 A3032 RMK A01 T00991070  RH  030%=      5-min Rain = 0
KPD1 092134Z 34004KT 10/M07 A3032 RMK A01 T01001067  RH  030%=      5-min Rain = 0
KPD1 092135Z 36004KT 10/M07 A3032 RMK A01 T01011068  RH  030%=      5-min Rain = 0
KPD1 092136Z 02004KT 10/M07 A3032 RMK A01 T01001069  RH  030%=      5-min Rain = 0
KPD1 092137Z 02003KT 10/M07 A3032 RMK A01 T01001070  RH  030%=      5-min Rain = 0
KPD1 092138Z 05003KT 10/M07 A3032 RMK A01 T00991070  RH  030%=      5-min Rain = 0
KPD1 092139Z 04003KT 10/M07 A3032 RMK A01 T00991072  RH  029%=      5-min Rain = 0
KPD1 092140Z 04003KT 10/M07 A3032 RMK A01 T00981071  RH  030%=      5-min Rain = 0
KPD1 092141Z 04004KT 10/M07 A3032 RMK A01 T00981070  RH  030%=      5-min Rain = 0
KPD1 092142Z 04005KT 10/M07 A3032 RMK A01 T00991069  RH  030%=      5-min Rain = 0
KPD1 092143Z 04004KT 10/M07 A3032 RMK A01 T00991070  RH  030%=      5-min Rain = 0
KPD1 092144Z 03005KT 10/M07 A3032 RMK A01 T00991070  RH  030%=      5-min Rain = 0
KPD1 092145Z 04005KT 10/M07 A3032 RMK A01 T00991071  RH  030%=      5-min Rain = 0
KPD1 092146Z 02004KT 10/M07 A3032 RMK A01 T00991069  RH  030%=      5-min Rain = 0
KPD1 092147Z 04003KT 10/M07 A3032 RMK A01 T01011069  RH  030%=      5-min Rain = 0
KPD1 092148Z 03004KT 10/M07 A3032 RMK A01 T01011068  RH  030%=      5-min Rain = 0
KPD1 092149Z 08003KT 10/M07 A3032 RMK A01 T01011071  RH  029%=      5-min Rain = 0
KPD1 092150Z 11002KT 10/M07 A3032 RMK A01 T01001072  RH  029%=      5-min Rain = 0
KPD1 092151Z 09003KT 10/M07 A3032 RMK A01 T00991073  RH  029%=      5-min Rain = 0
KPD1 092152Z 04004KT 10/M07 A3032 RMK A01 T00991072  RH  029%=      5-min Rain = 0
KPD1 092153Z 04003KT 10/M07 A3032 RMK A01 T00991071  RH  029%=      5-min Rain = 0
KPD1 092154Z 05002KT 10/M07 A3032 RMK A01 T00991072  RH  029%=      5-min Rain = 0
KPD1 092155Z 04003KT 10/M07 A3032 RMK A01 T00991070  RH  030%=      5-min Rain = 0
KPD1 092156Z 04003KT 10/M07 A3032 RMK A01 T00991070  RH  030%=      5-min Rain = 0
KPD1 092157Z 04002KT 10/M07 A3032 RMK A01 T01001069  RH  030%=      5-min Rain = 0
KPD1 092158Z 04001KT 10/M07 A3032 RMK A01 T01001069  RH  030%=      5-min Rain = 0
KPD1 092159Z 06001KT 10/M07 A3032 RMK A01 T01001069  RH  030%=      5-min Rain = 0
KPD1 092200Z 04001KT 10/M07 A3031 RMK A01 T01011070  RH  029%=      5-min Rain = 0
KPD1 092201Z 07002KT 10/M07 A3031 RMK A01 T01011072  RH  029%=      5-min Rain = 0
KPD1 092202Z 09002KT 10/M07 A3031 RMK A01 T01001074  RH  029%=      5-min Rain = 0
KPD1 092203Z 11000KT 10/M08 A3031 RMK A01 T01001075  RH  028%=      5-min Rain = 0
KPD1 092204Z 07001KT 10/M08 A3031 RMK A01 T00991076  RH  028%=      5-min Rain = 0
KPD1 092205Z 02001KT 10/M07 A3031 RMK A01 T01001073  RH  029%=      5-min Rain = 0
KPD1 092206Z 02000KT 10/M08 A3031 RMK A01 T01001075  RH  028%=      5-min Rain = 0
KPD1 092207Z 00000KT 10/M08 A3031 RMK A01 T01001075  RH  028%=      5-min Rain = 0
KPD1 092208Z 03002KT 10/M07 A3031 RMK A01 T01021074  RH  028%=      5-min Rain = 0
KPD1 092209Z 02002KT 10/M08 A3031 RMK A01 T01031075  RH  028%=      5-min Rain = 0
KPD1 092210Z 01002KT 10/M08 A3031 RMK A01 T01021075  RH  028%=      5-min Rain = 0
KPD1 092211Z 35004KT 10/M08 A3031 RMK A01 T01011075  RH  028%=      5-min Rain = 0
KPD1 092212Z 35004KT 10/M08 A3031 RMK A01 T01001079  RH  028%=      5-min Rain = 0
KPD1 092213Z 33003KT 10/M08 A3031 RMK A01 T00991079  RH  028%=      5-min Rain = 0
KPD1 092214Z 36003KT 10/M08 A3031 RMK A01 T00991077  RH  028%=      5-min Rain = 0
KPD1 092215Z 01004KT 10/M08 A3031 RMK A01 T01001076  RH  028%=      5-min Rain = 0
KPD1 092216Z 01003KT 10/M08 A3031 RMK A01 T01001076  RH  028%=      5-min Rain = 0
KPD1 092217Z 35001KT 10/M08 A3031 RMK A01 T00991077  RH  028%=      5-min Rain = 0
KPD1 092218Z 03001KT 10/M08 A3031 RMK A01 T00991076  RH  028%=      5-min Rain = 0
KPD1 092219Z 02002KT 10/M08 A3031 RMK A01 T00991076  RH  028%=      5-min Rain = 0
KPD1 092220Z 02002KT 10/M08 A3031 RMK A01 T00991078  RH  028%=      5-min Rain = 0
KPD1 092221Z 01002KT 10/M08 A3031 RMK A01 T00991079  RH  028%=      5-min Rain = 0
KPD1 092222Z 02002KT 10/M08 A3031 RMK A01 T00991078  RH  028%=      5-min Rain = 0
KPD1 092223Z 02003KT 10/M08 A3031 RMK A01 T00991077  RH  028%=      5-min Rain = 0
KPD1 092224Z 35003KT 10/M08 A3031 RMK A01 T00991076  RH  028%=      5-min Rain = 0
KPD1 092225Z 36003KT 10/M08 A3031 RMK A01 T00991075  RH  029%=      5-min Rain = 0
KPD1 092226Z 01002KT 10/M08 A3031 RMK A01 T00991076  RH  028%=      5-min Rain = 0
KPD1 092227Z 01002KT 10/M08 A3032 RMK A01 T00991077  RH  028%=      5-min Rain = 0
KPD1 092228Z 35003KT 10/M08 A3032 RMK A01 T00991077  RH  028%=      5-min Rain = 0
KPD1 092229Z 34003KT 10/M08 A3032 RMK A01 T00991077  RH  028%=      5-min Rain = 0
KPD1 092230Z 35002KT 10/M08 A3032 RMK A01 T00991078  RH  028%=      5-min Rain = 0
KPD1 092231Z 35003KT 10/M08 A3032 RMK A01 T00991078  RH  028%=      5-min Rain = 0
KPD1 092232Z 35003KT 10/M08 A3032 RMK A01 T00981078  RH  028%=      5-min Rain = 0
KPD1 092233Z 36003KT 10/M08 A3032 RMK A01 T00981077  RH  028%=      5-min Rain = 0
KPD1 092234Z 36002KT 10/M08 A3032 RMK A01 T00981077  RH  028%=      5-min Rain = 0
KPD1 092235Z 35003KT 10/M08 A3032 RMK A01 T00981077  RH  028%=      5-min Rain = 0
KPD1 092236Z 36003KT 10/M08 A3032 RMK A01 T00971077  RH  029%=      5-min Rain = 0
KPD1 092237Z 00003KT 10/M08 A3032 RMK A01 T00981076  RH  029%=      5-min Rain = 0
KPD1 092238Z 01003KT 10/M08 A3032 RMK A01 T00981076  RH  029%=      5-min Rain = 0
KPD1 092239Z 01003KT 10/M08 A3032 RMK A01 T00971076  RH  029%=      5-min Rain = 0
KPD1 092240Z 35003KT 10/M08 A3032 RMK A01 T00971075  RH  029%=      5-min Rain = 0
KPD1 092241Z 35002KT 10/M08 A3032 RMK A01 T00971075  RH  029%=      5-min Rain = 0
KPD1 092242Z 35002KT 10/M08 A3032 RMK A01 T00971075  RH  029%=      5-min Rain = 0
KPD1 092243Z 35001KT 10/M08 A3032 RMK A01 T00971075  RH  029%=      5-min Rain = 0
KPD1 092244Z 00001KT 10/M08 A3032 RMK A01 T00971075  RH  029%=      5-min Rain = 0
KPD1 092245Z 01002KT 10/M07 A3032 RMK A01 T00971074  RH  029%=      5-min Rain = 0
KPD1 092246Z 00003KT 10/M07 A3032 RMK A01 T00971074  RH  029%=      5-min Rain = 0
KPD1 092247Z 36003KT 10/M08 A3032 RMK A01 T00961075  RH  029%=      5-min Rain = 0
KPD1 092248Z 34002KT 10/M08 A3032 RMK A01 T00961076  RH  029%=      5-min Rain = 0
KPD1 092249Z 35001KT 10/M08 A3032 RMK A01 T00951076  RH  029%=      5-min Rain = 0
KPD1 092250Z 34002KT 10/M08 A3032 RMK A01 T00951075  RH  029%=      5-min Rain = 0
KPD1 092251Z 35003KT 10/M08 A3032 RMK A01 T00951076  RH  029%=      5-min Rain = 0
KPD1 092252Z 34003KT 10/M08 A3032 RMK A01 T00951075  RH  029%=      5-min Rain = 0
KPD1 092253Z 35003KT 10/M08 A3033 RMK A01 T00951075  RH  030%=      5-min Rain = 0
KPD1 092254Z 35004KT 09/M08 A3033 RMK A01 T00941075  RH  030%=      5-min Rain = 0
KPD1 092255Z 00002KT 09/M08 A3033 RMK A01 T00941075  RH  030%=      5-min Rain = 0
KPD1 092256Z 35002KT 09/M08 A3033 RMK A01 T00941075  RH  030%=      5-min Rain = 0
KPD1 092257Z 02002KT 09/M07 A3033 RMK A01 T00941074  RH  030%=      5-min Rain = 0
KPD1 092258Z 03001KT 09/M07 A3033 RMK A01 T00931074  RH  030%=      5-min Rain = 0
KPD1 092259Z 03001KT 09/M07 A3033 RMK A01 T00931074  RH  030%=      5-min Rain = 0
KPD1 092300Z 02001KT 09/M07 A3033 RMK A01 T00931074  RH  030%=      5-min Rain = 0
KPD1 092301Z 01002KT 09/M08 A3033 RMK A01 T00921076  RH  030%=      5-min Rain = 0
KPD1 092302Z 01003KT 09/M08 A3033 RMK A01 T00911077  RH  030%=      5-min Rain = 0
KPD1 092303Z 01003KT 09/M08 A3033 RMK A01 T00911082  RH  029%=      5-min Rain = 0
KPD1 092304Z 00003KT 09/M08 A3033 RMK A01 T00901084  RH  028%=      5-min Rain = 0
KPD1 092305Z 02004KT 09/M09 A3033 RMK A01 T00891085  RH  028%=      5-min Rain = 0
KPD1 092306Z 03005KT 09/M09 A3033 RMK A01 T00881085  RH  028%=      5-min Rain = 0
KPD1 092307Z 03004KT 09/M09 A3033 RMK A01 T00881087  RH  028%=      5-min Rain = 0
KPD1 092308Z 02003KT 09/M09 A3033 RMK A01 T00881087  RH  028%=      5-min Rain = 0
KPD1 092309Z 02003KT 09/M09 A3033 RMK A01 T00881088  RH  028%=      5-min Rain = 0
KPD1 092310Z 02003KT 09/M09 A3033 RMK A01 T00861087  RH  028%=      5-min Rain = 0
KPD1 092311Z 01002KT 09/M09 A3033 RMK A01 T00861087  RH  028%=      5-min Rain = 0
KPD1 092312Z 02003KT 09/M09 A3033 RMK A01 T00861087  RH  028%=      5-min Rain = 0
KPD1 092313Z 02002KT 09/M09 A3033 RMK A01 T00851089  RH  028%=      5-min Rain = 0
KPD1 092314Z 02003KT 09/M09 A3033 RMK A01 T00851091  RH  028%=      5-min Rain = 0
KPD1 092315Z 02003KT 08/M09 A3033 RMK A01 T00841091  RH  028%=      5-min Rain = 0
KPD1 092316Z 01002KT 08/M09 A3033 RMK A01 T00841092  RH  028%=      5-min Rain = 0
KPD1 092317Z 01002KT 08/M09 A3033 RMK A01 T00831092  RH  028%=      5-min Rain = 0
KPD1 092318Z 01002KT 08/M09 A3033 RMK A01 T00831092  RH  028%=      5-min Rain = 0
KPD1 092319Z 01001KT 08/M09 A3033 RMK A01 T00821091  RH  028%=      5-min Rain = 0
KPD1 092320Z 01002KT 08/M09 A3033 RMK A01 T00821091  RH  028%=      5-min Rain = 0
KPD1 092321Z 01002KT 08/M09 A3033 RMK A01 T00811091  RH  028%=      5-min Rain = 0
KPD1 092322Z 03002KT 08/M09 A3033 RMK A01 T00811091  RH  029%=      5-min Rain = 0
KPD1 092323Z 02002KT 08/M09 A3033 RMK A01 T00811090  RH  029%=      5-min Rain = 0
KPD1 092324Z 03002KT 08/M09 A3033 RMK A01 T00791091  RH  029%=      5-min Rain = 0
KPD1 092325Z 03002KT 08/M09 A3033 RMK A01 T00791091  RH  029%=      5-min Rain = 0
KPD1 092326Z 03001KT 08/M09 A3033 RMK A01 T00781092  RH  029%=      5-min Rain = 0
KPD1 092327Z 03001KT 08/M09 A3033 RMK A01 T00781091  RH  029%=      5-min Rain = 0
KPD1 092328Z 04002KT 08/M09 A3032 RMK A01 T00781090  RH  029%=      5-min Rain = 0
KPD1 092329Z 04001KT 08/M09 A3032 RMK A01 T00771091  RH  029%=      5-min Rain = 0
KPD1 092330Z 04001KT 08/M09 A3032 RMK A01 T00761091  RH  030%=      5-min Rain = 0
KPD1 092331Z 04000KT 08/M09 A3032 RMK A01 T00751089  RH  030%=      5-min Rain = 0
KPD1 092332Z 04000KT 07/M09 A3032 RMK A01 T00741090  RH  030%=      5-min Rain = 0
KPD1 092333Z 04000KT 07/M09 A3032 RMK A01 T00721090  RH  030%=      5-min Rain = 0
KPD1 092334Z 00000KT 07/M09 A3033 RMK A01 T00711090  RH  031%=      5-min Rain = 0
KPD1 092335Z 00000KT 07/M09 A3033 RMK A01 T00701090  RH  031%=      5-min Rain = 0
KPD1 092336Z 00000KT 07/M09 A3033 RMK A01 T00681091  RH  031%=      5-min Rain = 0
KPD1 092337Z 02001KT 07/M09 A3033 RMK A01 T00671092  RH  031%=      5-min Rain = 0
KPD1 092338Z 01000KT 07/M09 A3033 RMK A01 T00661091  RH  032%=      5-min Rain = 0
KPD1 092339Z 02000KT 07/M09 A3033 RMK A01 T00651092  RH  032%=      5-min Rain = 0
KPD1 092340Z 01000KT 06/M09 A3033 RMK A01 T00641092  RH  032%=      5-min Rain = 0
KPD1 092341Z 00000KT 06/M09 A3033 RMK A01 T00631093  RH  032%=      5-min Rain = 0
KPD1 092342Z 00000KT 06/M09 A3033 RMK A01 T00631092  RH  032%=      5-min Rain = 0
KPD1 092343Z 36000KT 06/M09 A3033 RMK A01 T00641091  RH  032%=      5-min Rain = 0
KPD1 092344Z 35001KT 06/M09 A3033 RMK A01 T00631092  RH  032%=      5-min Rain = 0
KPD1 092345Z 36001KT 06/M09 A3033 RMK A01 T00631092  RH  032%=      5-min Rain = 0
KPD1 092346Z 00002KT 06/M09 A3033 RMK A01 T00641092  RH  032%=      5-min Rain = 0
KPD1 092347Z 00002KT 07/M09 A3033 RMK A01 T00651092  RH  032%=      5-min Rain = 0
KPD1 092348Z 01002KT 07/M09 A3033 RMK A01 T00651091  RH  032%=      5-min Rain = 0
KPD1 092349Z 01001KT 07/M09 A3033 RMK A01 T00651091  RH  032%=      5-min Rain = 0
KPD1 092350Z 01001KT 06/M09 A3033 RMK A01 T00631091  RH  032%=      5-min Rain = 0
KPD1 092351Z 02001KT 06/M09 A3033 RMK A01 T00631091  RH  032%=      5-min Rain = 0
KPD1 092352Z 03002KT 06/M09 A3033 RMK A01 T00621091  RH  033%=      5-min Rain = 0
KPD1 092353Z 02002KT 06/M09 A3033 RMK A01 T00611091  RH  033%=      5-min Rain = 0
KPD1 092354Z 01002KT 06/M09 A3034 RMK A01 T00631090  RH  033%=      5-min Rain = 0
KPD1 092355Z 02002KT 06/M09 A3034 RMK A01 T00641089  RH  033%=      5-min Rain = 0
KPD1 092356Z 01001KT 06/M09 A3034 RMK A01 T00641088  RH  033%=      5-min Rain = 0
KPD1 092357Z 01001KT 06/M09 A3034 RMK A01 T00631088  RH  033%=      5-min Rain = 0
KPD1 092358Z 02002KT 06/M09 A3034 RMK A01 T00621088  RH  033%=      5-min Rain = 0
KPD1 092359Z 01002KT 06/M09 A3034 RMK A01 T00611087  RH  034%=      5-min Rain = 0
KPD1 100000Z 36002KT 06/M09 A3034 RMK A01 T00611087  RH  034%=      5-min Rain = 0
KPD1 100001Z 36002KT 06/M09 A3034 RMK A01 T00611086  RH  034%=      5-min Rain = 0
KPD1 100002Z 35002KT 06/M09 A3034 RMK A01 T00611086  RH  034%=      5-min Rain = 0
KPD1 100003Z 36001KT 06/M09 A3034 RMK A01 T00611086  RH  034%=      5-min Rain = 0
KPD1 100004Z 00001KT 06/M09 A3034 RMK A01 T00611086  RH  034%=      5-min Rain = 0
KPD1 100005Z 35001KT 06/M09 A3034 RMK A01 T00611086  RH  034%=      5-min Rain = 0
KPD1 100006Z 36002KT 06/M09 A3034 RMK A01 T00601086  RH  034%=      5-min Rain = 0
KPD1 100007Z 02003KT 06/M09 A3034 RMK A01 T00591086  RH  035%=      5-min Rain = 0
KPD1 100008Z 01002KT 06/M08 A3034 RMK A01 T00591084  RH  035%=      5-min Rain = 0
KPD1 100009Z 36003KT 06/M08 A3035 RMK A01 T00591083  RH  035%=      5-min Rain = 0
KPD1 100010Z 36003KT 06/M08 A3035 RMK A01 T00591083  RH  035%=      5-min Rain = 0
KPD1 100011Z 01003KT 06/M08 A3035 RMK A01 T00571083  RH  036%=      5-min Rain = 0
KPD1 100012Z 01003KT 06/M08 A3035 RMK A01 T00561083  RH  036%=      5-min Rain = 0
KPD1 100013Z 35002KT 06/M08 A3035 RMK A01 T00561083  RH  036%=      5-min Rain = 0
KPD1 100014Z 34002KT 06/M08 A3035 RMK A01 T00551083  RH  036%=      5-min Rain = 0
KPD1 100015Z 34001KT 05/M08 A3035 RMK A01 T00541082  RH  037%=      5-min Rain = 0
KPD1 100016Z 35002KT 05/M08 A3035 RMK A01 T00531083  RH  037%=      5-min Rain = 0
KPD1 100017Z 35002KT 05/M08 A3035 RMK A01 T00521082  RH  037%=      5-min Rain = 0
KPD1 100018Z 34002KT 05/M08 A3035 RMK A01 T00521082  RH  037%=      5-min Rain = 0
KPD1 100019Z 35001KT 05/M08 A3035 RMK A01 T00521082  RH  037%=      5-min Rain = 0
KPD1 100020Z 03002KT 05/M08 A3035 RMK A01 T00511082  RH  038%=      5-min Rain = 0
KPD1 100021Z 03004KT 05/M08 A3035 RMK A01 T00511081  RH  038%=      5-min Rain = 0
KPD1 100022Z 03002KT 05/M08 A3035 RMK A01 T00531079  RH  038%=      5-min Rain = 0
KPD1 100023Z 01001KT 05/M08 A3035 RMK A01 T00541080  RH  037%=      5-min Rain = 0
KPD1 100024Z 03002KT 05/M08 A3035 RMK A01 T00541080  RH  037%=      5-min Rain = 0
KPD1 100025Z 03003KT 06/M08 A3035 RMK A01 T00551080  RH  037%=      5-min Rain = 0
KPD1 100026Z 01003KT 06/M08 A3035 RMK A01 T00551080  RH  037%=      5-min Rain = 0
KPD1 100027Z 02004KT 06/M08 A3035 RMK A01 T00551081  RH  037%=      5-min Rain = 0
KPD1 100028Z 03003KT 06/M08 A3035 RMK A01 T00551080  RH  037%=      5-min Rain = 0
KPD1 100029Z 01002KT 06/M08 A3035 RMK A01 T00551081  RH  037%=      5-min Rain = 0
KPD1 100030Z 00002KT 06/M08 A3035 RMK A01 T00561081  RH  037%=      5-min Rain = 0
KPD1 100031Z 03003KT 06/M08 A3035 RMK A01 T00561081  RH  037%=      5-min Rain = 0
KPD1 100032Z 02003KT 06/M08 A3035 RMK A01 T00561081  RH  037%=      5-min Rain = 0
KPD1 100033Z 00003KT 06/M08 A3035 RMK A01 T00561081  RH  037%=      5-min Rain = 0
KPD1 100034Z 04003KT 06/M08 A3035 RMK A01 T00551081  RH  037%=      5-min Rain = 0
KPD1 100035Z 02002KT 06/M08 A3035 RMK A01 T00551082  RH  037%=      5-min Rain = 0
KPD1 100036Z 00001KT 06/M08 A3035 RMK A01 T00551082  RH  036%=      5-min Rain = 0
KPD1 100037Z 00001KT 06/M08 A3035 RMK A01 T00551082  RH  037%=      5-min Rain = 0
KPD1 100038Z 02002KT 05/M08 A3035 RMK A01 T00541083  RH  037%=      5-min Rain = 0
KPD1 100039Z 02003KT 05/M08 A3035 RMK A01 T00541083  RH  037%=      5-min Rain = 0
KPD1 100040Z 01003KT 06/M08 A3035 RMK A01 T00551083  RH  036%=      5-min Rain = 0
KPD1 100041Z 03003KT 06/M08 A3035 RMK A01 T00551083  RH  036%=      5-min Rain = 0
KPD1 100042Z 02003KT 05/M08 A3035 RMK A01 T00541084  RH  036%=      5-min Rain = 0
KPD1 100043Z 02003KT 05/M08 A3035 RMK A01 T00531084  RH  036%=      5-min Rain = 0
KPD1 100044Z 00003KT 05/M08 A3035 RMK A01 T00531084  RH  037%=      5-min Rain = 0
KPD1 100045Z 02003KT 05/M08 A3035 RMK A01 T00541083  RH  036%=      5-min Rain = 0
KPD1 100046Z 01004KT 05/M08 A3035 RMK A01 T00541083  RH  036%=      5-min Rain = 0
KPD1 100047Z 02005KT 05/M08 A3035 RMK A01 T00541084  RH  036%=      5-min Rain = 0
KPD1 100048Z 02003KT 06/M08 A3035 RMK A01 T00551084  RH  036%=      5-min Rain = 0
KPD1 100049Z 01003KT 06/M08 A3035 RMK A01 T00551084  RH  036%=      5-min Rain = 0
KPD1 100050Z 00003KT 05/M09 A3035 RMK A01 T00541085  RH  036%=      5-min Rain = 0
KPD1 100051Z 00002KT 05/M09 A3035 RMK A01 T00531085  RH  036%=      5-min Rain = 0
KPD1 100052Z 01002KT 05/M09 A3036 RMK A01 T00521086  RH  036%=      5-min Rain = 0
KPD1 100053Z 00003KT 05/M09 A3036 RMK A01 T00521085  RH  036%=      5-min Rain = 0
KPD1 100054Z 36002KT 05/M09 A3036 RMK A01 T00521085  RH  036%=      5-min Rain = 0
KPD1 100055Z 35002KT 05/M09 A3036 RMK A01 T00521085  RH  036%=      5-min Rain = 0
KPD1 100056Z 34002KT 05/M09 A3036 RMK A01 T00511086  RH  037%=      5-min Rain = 0
KPD1 100057Z 00002KT 05/M09 A3036 RMK A01 T00501086  RH  037%=      5-min Rain = 0
KPD1 100058Z 36003KT 05/M09 A3036 RMK A01 T00501086  RH  037%=      5-min Rain = 0
KPD1 100059Z 02003KT 05/M09 A3036 RMK A01 T00511086  RH  036%=      5-min Rain = 0
KPD1 100100Z 01002KT 05/M09 A3036 RMK A01 T00521087  RH  036%=      5-min Rain = 0
KPD1 100101Z 35002KT 05/M09 A3036 RMK A01 T00511087  RH  036%=      5-min Rain = 0
KPD1 100102Z 36002KT 05/M09 A3036 RMK A01 T00511087  RH  036%=      5-min Rain = 0
KPD1 100103Z 35002KT 05/M09 A3036 RMK A01 T00491088  RH  036%=      5-min Rain = 0
KPD1 100104Z 36002KT 05/M09 A3036 RMK A01 T00501087  RH  036%=      5-min Rain = 0
KPD1 100105Z 35001KT 05/M09 A3036 RMK A01 T00501087  RH  036%=      5-min Rain = 0
KPD1 100106Z 00001KT 05/M09 A3036 RMK A01 T00501088  RH  036%=      5-min Rain = 0
KPD1 100107Z 00001KT 05/M09 A3036 RMK A01 T00501088  RH  036%=      5-min Rain = 0
KPD1 100108Z 00002KT 05/M09 A3036 RMK A01 T00511088  RH  036%=      5-min Rain = 0
KPD1 100109Z 00002KT 05/M09 A3036 RMK A01 T00511088  RH  036%=      5-min Rain = 0
KPD1 100110Z 35002KT 05/M09 A3036 RMK A01 T00501088  RH  036%=      5-min Rain = 0
KPD1 100111Z 35002KT 05/M09 A3036 RMK A01 T00501088  RH  036%=      5-min Rain = 0
KPD1 100112Z 36002KT 05/M09 A3036 RMK A01 T00501088  RH  036%=      5-min Rain = 0
KPD1 100113Z 00002KT 05/M09 A3036 RMK A01 T00501089  RH  036%=      5-min Rain = 0
KPD1 100114Z 01002KT 05/M09 A3036 RMK A01 T00491089  RH  036%=      5-min Rain = 0
KPD1 100115Z 01002KT 05/M09 A3036 RMK A01 T00481089  RH  036%=      5-min Rain = 0
KPD1 100116Z 01003KT 05/M09 A3036 RMK A01 T00481090  RH  036%=      5-min Rain = 0
KPD1 100117Z 01003KT 05/M09 A3036 RMK A01 T00471089  RH  036%=      5-min Rain = 0
KPD1 100118Z 36003KT 05/M09 A3036 RMK A01 T00471090  RH  036%=      5-min Rain = 0
KPD1 100119Z 00003KT 05/M09 A3036 RMK A01 T00471090  RH  036%=      5-min Rain = 0
KPD1 100120Z 35003KT 05/M09 A3036 RMK A01 T00481090  RH  036%=      5-min Rain = 0
KPD1 100121Z 35003KT 05/M09 A3036 RMK A01 T00471090  RH  036%=      5-min Rain = 0
KPD1 100122Z 35003KT 05/M09 A3037 RMK A01 T00471090  RH  036%=      5-min Rain = 0
KPD1 100123Z 34003KT 05/M09 A3037 RMK A01 T00461090  RH  037%=      5-min Rain = 0
KPD1 100124Z 33002KT 05/M09 A3036 RMK A01 T00461090  RH  037%=      5-min Rain = 0
KPD1 100125Z 33001KT 05/M09 A3036 RMK A01 T00471089  RH  037%=      5-min Rain = 0
KPD1 100126Z 34001KT 05/M09 A3036 RMK A01 T00481089  RH  036%=      5-min Rain = 0
KPD1 100127Z 35002KT 05/M09 A3036 RMK A01 T00491089  RH  036%=      5-min Rain = 0
KPD1 100128Z 00002KT 05/M09 A3037 RMK A01 T00491089  RH  036%=      5-min Rain = 0
KPD1 100129Z 36002KT 05/M09 A3036 RMK A01 T00491090  RH  036%=      5-min Rain = 0
KPD1 100130Z 36002KT 05/M09 A3036 RMK A01 T00491090  RH  036%=      5-min Rain = 0
KPD1 100131Z 01002KT 05/M09 A3036 RMK A01 T00491090  RH  036%=      5-min Rain = 0
KPD1 100132Z 00002KT 05/M09 A3036 RMK A01 T00491090  RH  036%=      5-min Rain = 0
KPD1 100133Z 01002KT 05/M09 A3036 RMK A01 T00481091  RH  036%=      5-min Rain = 0
KPD1 100134Z 01002KT 05/M09 A3036 RMK A01 T00471090  RH  036%=      5-min Rain = 0
KPD1 100135Z 00003KT 05/M09 A3036 RMK A01 T00471091  RH  036%=      5-min Rain = 0
KPD1 100136Z 01003KT 05/M09 A3036 RMK A01 T00451091  RH  036%=      5-min Rain = 0
KPD1 100137Z 01004KT 05/M09 A3036 RMK A01 T00451091  RH  037%=      5-min Rain = 0
KPD1 100138Z 01006KT 05/M09 A3036 RMK A01 T00461090  RH  037%=      5-min Rain = 0
KPD1 100139Z 03005KT 05/M09 A3036 RMK A01 T00461089  RH  037%=      5-min Rain = 0
KPD1 100140Z 03003KT 04/M09 A3036 RMK A01 T00441088  RH  038%=      5-min Rain = 0
KPD1 100141Z 03002KT 04/M09 A3036 RMK A01 T00421088  RH  038%=      5-min Rain = 0
KPD1 100142Z 01002KT 04/M09 A3036 RMK A01 T00421088  RH  038%=      5-min Rain = 0
KPD1 100143Z 00002KT 04/M09 A3036 RMK A01 T00411088  RH  039%=      5-min Rain = 0
KPD1 100144Z 00003KT 04/M09 A3036 RMK A01 T00411088  RH  039%=      5-min Rain = 0
KPD1 100145Z 01003KT 04/M09 A3036 RMK A01 T00401088  RH  039%=      5-min Rain = 0
KPD1 100146Z 01004KT 04/M09 A3036 RMK A01 T00401088  RH  039%=      5-min Rain = 0
KPD1 100147Z 00004KT 04/M09 A3036 RMK A01 T00381089  RH  039%=      5-min Rain = 0
KPD1 100148Z 00003KT 04/M09 A3036 RMK A01 T00381089  RH  039%=      5-min Rain = 0
KPD1 100149Z 00003KT 04/M09 A3036 RMK A01 T00371090  RH  039%=      5-min Rain = 0
KPD1 100150Z 01003KT 04/M09 A3036 RMK A01 T00371090  RH  039%=      5-min Rain = 0
KPD1 100151Z 02003KT 04/M09 A3036 RMK A01 T00391090  RH  039%=      5-min Rain = 0
KPD1 100152Z 00003KT 04/M09 A3036 RMK A01 T00401089  RH  038%=      5-min Rain = 0
KPD1 100153Z 00003KT 04/M09 A3036 RMK A01 T00411089  RH  038%=      5-min Rain = 0
KPD1 100154Z 36003KT 04/M09 A3036 RMK A01 T00411089  RH  038%=      5-min Rain = 0
KPD1 100155Z 35003KT 04/M09 A3036 RMK A01 T00411089  RH  038%=      5-min Rain = 0
KPD1 100156Z 36003KT 04/M09 A3036 RMK A01 T00411088  RH  038%=      5-min Rain = 0
KPD1 100157Z 00003KT 04/M09 A3036 RMK A01 T00411088  RH  038%=      5-min Rain = 0
KPD1 100158Z 36003KT 04/M09 A3036 RMK A01 T00401089  RH  039%=      5-min Rain = 0
KPD1 100159Z 35003KT 04/M09 A3036 RMK A01 T00401088  RH  039%=      5-min Rain = 0
KPD1 100200Z 35002KT 04/M09 A3036 RMK A01 T00401088  RH  039%=      5-min Rain = 0
KPD1 100201Z 34002KT 04/M09 A3036 RMK A01 T00401087  RH  039%=      5-min Rain = 0
KPD1 100202Z 34002KT 04/M09 A3036 RMK A01 T00411086  RH  039%=      5-min Rain = 0
KPD1 100203Z 35002KT 04/M09 A3036 RMK A01 T00411086  RH  039%=      5-min Rain = 0
KPD1 100204Z 35002KT 04/M09 A3036 RMK A01 T00421086  RH  039%=      5-min Rain = 0
KPD1 100205Z 00002KT 04/M09 A3036 RMK A01 T00411086  RH  039%=      5-min Rain = 0
KPD1 100206Z 36001KT 04/M09 A3036 RMK A01 T00411086  RH  039%=      5-min Rain = 0
KPD1 100207Z 00001KT 04/M09 A3036 RMK A01 T00411086  RH  039%=      5-min Rain = 0
KPD1 100208Z 00002KT 04/M09 A3036 RMK A01 T00411086  RH  039%=      5-min Rain = 0
KPD1 100209Z 01002KT 04/M09 A3036 RMK A01 T00421085  RH  039%=      5-min Rain = 0
KPD1 100210Z 01002KT 04/M09 A3036 RMK A01 T00421085  RH  039%=      5-min Rain = 0
KPD1 100211Z 00003KT 04/M09 A3036 RMK A01 T00431085  RH  039%=      5-min Rain = 0
KPD1 100212Z 00003KT 04/M09 A3036 RMK A01 T00421085  RH  039%=      5-min Rain = 0
KPD1 100213Z 01003KT 04/M09 A3036 RMK A01 T00431085  RH  039%=      5-min Rain = 0
KPD1 100214Z 02003KT 04/M09 A3036 RMK A01 T00431085  RH  039%=      5-min Rain = 0
KPD1 100215Z 02003KT 04/M09 A3036 RMK A01 T00421086  RH  039%=      5-min Rain = 0
KPD1 100216Z 02003KT 04/M09 A3036 RMK A01 T00411086  RH  039%=      5-min Rain = 0
KPD1 100217Z 03003KT 04/M09 A3036 RMK A01 T00401086  RH  039%=      5-min Rain = 0
KPD1 100218Z 03002KT 04/M09 A3036 RMK A01 T00401086  RH  039%=      5-min Rain = 0
KPD1 100219Z 02003KT 04/M09 A3036 RMK A01 T00401086  RH  039%=      5-min Rain = 0
KPD1 100220Z 02003KT 04/M09 A3036 RMK A01 T00391087  RH  039%=      5-min Rain = 0
KPD1 100221Z 01003KT 04/M09 A3036 RMK A01 T00381086  RH  040%=      5-min Rain = 0
KPD1 100222Z 00004KT 04/M09 A3037 RMK A01 T00371086  RH  040%=      5-min Rain = 0
KPD1 100223Z 00004KT 04/M09 A3037 RMK A01 T00361086  RH  040%=      5-min Rain = 0
KPD1 100224Z 35004KT 04/M09 A3037 RMK A01 T00361086  RH  041%=      5-min Rain = 0
KPD1 100225Z 35004KT 03/M09 A3037 RMK A01 T00331087  RH  041%=      5-min Rain = 0
KPD1 100226Z 34004KT 03/M09 A3037 RMK A01 T00321087  RH  041%=      5-min Rain = 0
KPD1 100227Z 33004KT 03/M09 A3037 RMK A01 T00311087  RH  042%=      5-min Rain = 0
KPD1 100228Z 34003KT 03/M09 A3037 RMK A01 T00301086  RH  042%=      5-min Rain = 0
KPD1 100229Z 34004KT 03/M09 A3037 RMK A01 T00311085  RH  042%=      5-min Rain = 0
KPD1 100230Z 34004KT 03/M09 A3037 RMK A01 T00301085  RH  042%=      5-min Rain = 0
KPD1 100231Z 34004KT 03/M09 A3037 RMK A01 T00301085  RH  043%=      5-min Rain = 0
KPD1 100232Z 34004KT 03/M08 A3037 RMK A01 T00301084  RH  043%=      5-min Rain = 0
KPD1 100233Z 34003KT 03/M08 A3037 RMK A01 T00321084  RH  042%=      5-min Rain = 0
KPD1 100234Z 34002KT 03/M08 A3037 RMK A01 T00341084  RH  042%=      5-min Rain = 0
KPD1 100235Z 33003KT 04/M08 A3037 RMK A01 T00351084  RH  041%=      5-min Rain = 0
KPD1 100236Z 33002KT 04/M08 A3037 RMK A01 T00361084  RH  041%=      5-min Rain = 0
KPD1 100237Z 34003KT 04/M09 A3037 RMK A01 T00351085  RH  041%=      5-min Rain = 0
KPD1 100238Z 35003KT 03/M09 A3037 RMK A01 T00331086  RH  041%=      5-min Rain = 0
KPD1 100239Z 35003KT 03/M09 A3037 RMK A01 T00321086  RH  042%=      5-min Rain = 0
KPD1 100240Z 34004KT 03/M09 A3038 RMK A01 T00311086  RH  042%=      5-min Rain = 0
KPD1 100241Z 34004KT 03/M09 A3038 RMK A01 T00301086  RH  042%=      5-min Rain = 0
KPD1 100242Z 34004KT 03/M09 A3038 RMK A01 T00301085  RH  043%=      5-min Rain = 0
KPD1 100243Z 34002KT 03/M08 A3037 RMK A01 T00301084  RH  043%=      5-min Rain = 0
KPD1 100244Z 34002KT 03/M08 A3037 RMK A01 T00321083  RH  042%=      5-min Rain = 0
KPD1 100245Z 00002KT 03/M08 A3037 RMK A01 T00331083  RH  042%=      5-min Rain = 0
KPD1 100246Z 00002KT 04/M08 A3037 RMK A01 T00351083  RH  042%=      5-min Rain = 0
KPD1 100247Z 35003KT 04/M08 A3038 RMK A01 T00351084  RH  042%=      5-min Rain = 0
KPD1 100248Z 35004KT 03/M08 A3038 RMK A01 T00341084  RH  042%=      5-min Rain = 0
KPD1 100249Z 34004KT 03/M09 A3038 RMK A01 T00331085  RH  042%=      5-min Rain = 0
KPD1 100250Z 34005KT 03/M09 A3038 RMK A01 T00331085  RH  042%=      5-min Rain = 0
KPD1 100251Z 34004KT 03/M08 A3038 RMK A01 T00331084  RH  042%=      5-min Rain = 0
KPD1 100252Z 35004KT 03/M08 A3038 RMK A01 T00331083  RH  042%=      5-min Rain = 0
KPD1 100253Z 35004KT 03/M08 A3038 RMK A01 T00331083  RH  042%=      5-min Rain = 0
KPD1 100254Z 00002KT 04/M08 A3038 RMK A01 T00351083  RH  042%=      5-min Rain = 0
KPD1 100255Z 35002KT 04/M08 A3038 RMK A01 T00361083  RH  041%=      5-min Rain = 0
KPD1 100256Z 36002KT 04/M08 A3037 RMK A01 T00371083  RH  041%=      5-min Rain = 0
KPD1 100257Z 35001KT 04/M08 A3037 RMK A01 T00371083  RH  041%=      5-min Rain = 0
KPD1 100258Z 36001KT 04/M08 A3037 RMK A01 T00371084  RH  041%=      5-min Rain = 0
KPD1 100259Z 00000KT 04/M08 A3037 RMK A01 T00371084  RH  041%=      5-min Rain = 0
KPD1 100300Z 35001KT 04/M09 A3037 RMK A01 T00371085  RH  041%=      5-min Rain = 0
KPD1 100301Z 00000KT 04/M09 A3037 RMK A01 T00371085  RH  041%=      5-min Rain = 0
KPD1 100302Z 01001KT 04/M09 A3037 RMK A01 T00371085  RH  041%=      5-min Rain = 0
KPD1 100303Z 00002KT 04/M08 A3037 RMK A01 T00381084  RH  040%=      5-min Rain = 0
KPD1 100304Z 35003KT 04/M08 A3037 RMK A01 T00381084  RH  040%=      5-min Rain = 0
KPD1 100305Z 36003KT 04/M09 A3037 RMK A01 T00361085  RH  041%=      5-min Rain = 0
KPD1 100306Z 36004KT 04/M09 A3037 RMK A01 T00351085  RH  041%=      5-min Rain = 0
KPD1 100307Z 00003KT 04/M09 A3037 RMK A01 T00351085  RH  041%=      5-min Rain = 0
KPD1 100308Z 01003KT 04/M08 A3037 RMK A01 T00351084  RH  041%=      5-min Rain = 0
KPD1 100309Z 01003KT 04/M08 A3037 RMK A01 T00351084  RH  041%=      5-min Rain = 0
KPD1 100310Z 01003KT 03/M09 A3037 RMK A01 T00341085  RH  041%=      5-min Rain = 0
KPD1 100311Z 01003KT 03/M09 A3037 RMK A01 T00341085  RH  041%=      5-min Rain = 0
KPD1 100312Z 00003KT 03/M08 A3037 RMK A01 T00341084  RH  042%=      5-min Rain = 0
KPD1 100313Z 35003KT 03/M09 A3037 RMK A01 T00321085  RH  042%=      5-min Rain = 0
KPD1 100314Z 35003KT 03/M09 A3038 RMK A01 T00311085  RH  042%=      5-min Rain = 0
KPD1 100315Z 35002KT 03/M09 A3037 RMK A01 T00311085  RH  042%=      5-min Rain = 0
KPD1 100316Z 36002KT 03/M09 A3037 RMK A01 T00301085  RH  042%=      5-min Rain = 0
KPD1 100317Z 35002KT 03/M09 A3037 RMK A01 T00301085  RH  042%=      5-min Rain = 0
KPD1 100318Z 36003KT 03/M09 A3037 RMK A01 T00301085  RH  042%=      5-min Rain = 0
KPD1 100319Z 00003KT 03/M09 A3037 RMK A01 T00301086  RH  042%=      5-min Rain = 0
KPD1 100320Z 00003KT 03/M09 A3037 RMK A01 T00291086  RH  042%=      5-min Rain = 0
KPD1 100321Z 01002KT 03/M09 A3037 RMK A01 T00281087  RH  043%=      5-min Rain = 0
KPD1 100322Z 01002KT 03/M09 A3037 RMK A01 T00281086  RH  043%=      5-min Rain = 0
KPD1 100323Z 00002KT 03/M09 A3037 RMK A01 T00281087  RH  043%=      5-min Rain = 0
KPD1 100324Z 00002KT 03/M09 A3037 RMK A01 T00281087  RH  042%=      5-min Rain = 0
KPD1 100325Z 35002KT 03/M09 A3037 RMK A01 T00291087  RH  042%=      5-min Rain = 0
KPD1 100326Z 35002KT 03/M09 A3037 RMK A01 T00291087  RH  042%=      5-min Rain = 0
KPD1 100327Z 35002KT 03/M09 A3037 RMK A01 T00291087  RH  042%=      5-min Rain = 0
KPD1 100328Z 35003KT 03/M09 A3037 RMK A01 T00291087  RH  042%=      5-min Rain = 0
KPD1 100329Z 36003KT 03/M09 A3037 RMK A01 T00291087  RH  042%=      5-min Rain = 0
KPD1 100330Z 00003KT 03/M09 A3037 RMK A01 T00291087  RH  042%=      5-min Rain = 0
KPD1 100331Z 01003KT 03/M09 A3037 RMK A01 T00271088  RH  042%=      5-min Rain = 0
KPD1 100332Z 01002KT 03/M09 A3037 RMK A01 T00251088  RH  043%=      5-min Rain = 0
KPD1 100333Z 02001KT 02/M09 A3037 RMK A01 T00221089  RH  044%=      5-min Rain = 0
KPD1 100334Z 02000KT 02/M09 A3037 RMK A01 T00201089  RH  045%=      5-min Rain = 0
KPD1 100335Z 00000KT 02/M09 A3037 RMK A01 T00191089  RH  045%=      5-min Rain = 0
KPD1 100336Z 32001KT 02/M09 A3037 RMK A01 T00181088  RH  045%=      5-min Rain = 0
KPD1 100337Z 32002KT 02/M09 A3037 RMK A01 T00181088  RH  045%=      5-min Rain = 0
KPD1 100338Z 32002KT 02/M09 A3037 RMK A01 T00171088  RH  045%=      5-min Rain = 0
KPD1 100339Z 32001KT 02/M09 A3037 RMK A01 T00171089  RH  045%=      5-min Rain = 0
KPD1 100340Z 33001KT 02/M09 A3037 RMK A01 T00161089  RH  045%=      5-min Rain = 0
KPD1 100341Z 34001KT 02/M09 A3037 RMK A01 T00151089  RH  046%=      5-min Rain = 0
KPD1 100342Z 34001KT 01/M09 A3037 RMK A01 T00141089  RH  046%=      5-min Rain = 0
KPD1 100343Z 34002KT 01/M09 A3037 RMK A01 T00131089  RH  046%=      5-min Rain = 0
KPD1 100344Z 35002KT 01/M09 A3037 RMK A01 T00131089  RH  046%=      5-min Rain = 0
KPD1 100345Z 35002KT 01/M09 A3037 RMK A01 T00131089  RH  047%=      5-min Rain = 0
KPD1 100346Z 34002KT 01/M09 A3037 RMK A01 T00121089  RH  047%=      5-min Rain = 0
KPD1 100347Z 35002KT 01/M09 A3037 RMK A01 T00121089  RH  047%=      5-min Rain = 0
KPD1 100348Z 35001KT 01/M09 A3037 RMK A01 T00111090  RH  047%=      5-min Rain = 0
KPD1 100349Z 35001KT 01/M09 A3037 RMK A01 T00091090  RH  047%=      5-min Rain = 0
KPD1 100350Z 00001KT 01/M09 A3037 RMK A01 T00091090  RH  048%=      5-min Rain = 0
KPD1 100351Z 00000KT 01/M09 A3037 RMK A01 T00081090  RH  048%=      5-min Rain = 0
KPD1 100352Z 00000KT 01/M09 A3037 RMK A01 T00081089  RH  048%=      5-min Rain = 0
KPD1 100353Z 00000KT 01/M09 A3037 RMK A01 T00061090  RH  048%=      5-min Rain = 0
KPD1 100354Z 00000KT 01/M09 A3037 RMK A01 T00051090  RH  049%=      5-min Rain = 0
KPD1 100355Z 00000KT 00/M09 A3037 RMK A01 T00041090  RH  049%=      5-min Rain = 0
KPD1 100356Z 00000KT 00/M09 A3037 RMK A01 T00031091  RH  049%=      5-min Rain = 0
KPD1 100357Z 00000KT 00/M09 A3037 RMK A01 T00021091  RH  050%=      5-min Rain = 0
KPD1 100358Z 00000KT 00/M09 A3037 RMK A01 T00021090  RH  050%=      5-min Rain = 0
KPD1 100359Z 00000KT 00/M09 A3037 RMK A01 T00021090  RH  050%=      5-min Rain = 0
KPD1 100400Z 00000KT 00/M09 A3037 RMK A01 T00021090  RH  050%=      5-min Rain = 0
KPD1 100401Z 00000KT 00/M09 A3037 RMK A01 T00021090  RH  050%=      5-min Rain = 0
KPD1 100402Z 00000KT 00/M09 A3037 RMK A01 T00011090  RH  050%=      5-min Rain = 0
KPD1 100403Z 00000KT 00/09 A3037 RMK A01 T00-00-91  RH  050%=      5-min Rain = 0
KPD1 100404Z 00000KT M00/M09 A3037 RMK A01 T10011091  RH  051%=      5-min Rain = 0
KPD1 100405Z 31001KT M00/M09 A3037 RMK A01 T10011091  RH  051%=      5-min Rain = 0
KPD1 100406Z 32000KT M00/M09 A3037 RMK A01 T10031091  RH  051%=      5-min Rain = 0
KPD1 100407Z 31000KT M00/M09 A3037 RMK A01 T10041091  RH  052%=      5-min Rain = 0
KPD1 100408Z 31001KT M01/M09 A3037 RMK A01 T10051090  RH  053%=      5-min Rain = 0
KPD1 100409Z 32002KT M01/M09 A3037 RMK A01 T10061090  RH  053%=      5-min Rain = 0
KPD1 100410Z 31002KT M01/M09 A3038 RMK A01 T10071089  RH  054%=      5-min Rain = 0
KPD1 100411Z 31003KT M01/M09 A3038 RMK A01 T10081088  RH  054%=      5-min Rain = 0
KPD1 100412Z 31004KT M01/M09 A3038 RMK A01 T10091088  RH  055%=      5-min Rain = 0
KPD1 100413Z 30004KT M01/M09 A3038 RMK A01 T10101088  RH  055%=      5-min Rain = 0
KPD1 100414Z 31004KT M01/M09 A3038 RMK A01 T10101088  RH  055%=      5-min Rain = 0
KPD1 100415Z 31004KT M01/M09 A3038 RMK A01 T10101088  RH  056%=      5-min Rain = 0
KPD1 100416Z 30004KT M01/M09 A3038 RMK A01 T10101087  RH  056%=      5-min Rain = 0
KPD1 100417Z 30004KT M01/M09 A3038 RMK A01 T10101087  RH  056%=      5-min Rain = 0
KPD1 100418Z 30004KT M01/M09 A3038 RMK A01 T10101087  RH  056%=      5-min Rain = 0
KPD1 100419Z 30004KT M01/M09 A3038 RMK A01 T10101086  RH  056%=      5-min Rain = 0
KPD1 100420Z 30004KT M01/M09 A3038 RMK A01 T10101086  RH  056%=      5-min Rain = 0
KPD1 100421Z 30004KT M01/M09 A3038 RMK A01 T10101086  RH  056%=      5-min Rain = 0
KPD1 100422Z 30005KT M01/M09 A3038 RMK A01 T10091085  RH  056%=      5-min Rain = 0
KPD1 100423Z 30005KT M01/M09 A3038 RMK A01 T10081085  RH  056%=      5-min Rain = 0
KPD1 100424Z 30005KT M01/M09 A3038 RMK A01 T10081085  RH  056%=      5-min Rain = 0
KPD1 100425Z 30005KT M01/M09 A3038 RMK A01 T10071085  RH  056%=      5-min Rain = 0
KPD1 100426Z 30005KT M01/M09 A3038 RMK A01 T10071085  RH  056%=      5-min Rain = 0
KPD1 100427Z 30005KT M01/M09 A3037 RMK A01 T10071085  RH  055%=      5-min Rain = 0
KPD1 100428Z 31005KT M01/M09 A3038 RMK A01 T10071085  RH  056%=      5-min Rain = 0
KPD1 100429Z 31005KT M01/M09 A3038 RMK A01 T10081086  RH  056%=      5-min Rain = 0
KPD1 100430Z 31005KT M01/M09 A3038 RMK A01 T10081085  RH  056%=      5-min Rain = 0
KPD1 100431Z 30005KT M01/M09 A3038 RMK A01 T10071085  RH  056%=      5-min Rain = 0
KPD1 100432Z 30005KT M01/M09 A3038 RMK A01 T10071085  RH  056%=      5-min Rain = 0
KPD1 100433Z 30005KT M01/M09 A3038 RMK A01 T10071085  RH  056%=      5-min Rain = 0
KPD1 100434Z 30005KT M01/M09 A3038 RMK A01 T10081085  RH  056%=      5-min Rain = 0
KPD1 100435Z 30006KT M01/M09 A3038 RMK A01 T10081085  RH  056%=      5-min Rain = 0
KPD1 100436Z 30006KT M01/M08 A3038 RMK A01 T10071084  RH  056%=      5-min Rain = 0
KPD1 100437Z 30006KT M01/M09 A3038 RMK A01 T10071085  RH  056%=      5-min Rain = 0
KPD1 100438Z 30005KT M01/M09 A3038 RMK A01 T10071085  RH  056%=      5-min Rain = 0
KPD1 100439Z 30005KT M01/M09 A3037 RMK A01 T10061085  RH  055%=      5-min Rain = 0
KPD1 100440Z 31005KT M01/M09 A3038 RMK A01 T10061085  RH  055%=      5-min Rain = 0
KPD1 100441Z 31005KT M01/M08 A3038 RMK A01 T10051084  RH  055%=      5-min Rain = 0
KPD1 100442Z 30005KT M00/M08 A3038 RMK A01 T10041084  RH  055%=      5-min Rain = 0
KPD1 100443Z 31005KT M00/M08 A3038 RMK A01 T10031084  RH  054%=      5-min Rain = 0
KPD1 100444Z 31005KT M00/M08 A3038 RMK A01 T10021084  RH  054%=      5-min Rain = 0
KPD1 100445Z 31005KT M00/M08 A3038 RMK A01 T10021084  RH  054%=      5-min Rain = 0
KPD1 100446Z 31005KT M00/M08 A3038 RMK A01 T10011084  RH  054%=      5-min Rain = 0
KPD1 100447Z 31006KT M00/M08 A3038 RMK A01 T10011084  RH  053%=      5-min Rain = 0
KPD1 100448Z 31006KT M00/M08 A3038 RMK A01 T10011084  RH  053%=      5-min Rain = 0
KPD1 100449Z 31006KT 00/08 A3038 RMK A01 T00-00-84  RH  053%=      5-min Rain = 0
KPD1 100450Z 30006KT M00/M08 A3038 RMK A01 T10011084  RH  053%=      5-min Rain = 0
KPD1 100451Z 30006KT M00/M08 A3037 RMK A01 T10011084  RH  053%=      5-min Rain = 0
KPD1 100452Z 30006KT M00/M08 A3037 RMK A01 T10011084  RH  053%=      5-min Rain = 0
KPD1 100453Z 30006KT M00/M08 A3037 RMK A01 T10011084  RH  054%=      5-min Rain = 0
KPD1 100454Z 30006KT M00/M08 A3037 RMK A01 T10011084  RH  054%=      5-min Rain = 0
KPD1 100455Z 31006KT M00/M08 A3037 RMK A01 T10021084  RH  054%=      5-min Rain = 0
KPD1 100456Z 30006KT M00/M08 A3037 RMK A01 T10021084  RH  054%=      5-min Rain = 0
KPD1 100457Z 30007KT M00/M08 A3037 RMK A01 T10021084  RH  054%=      5-min Rain = 0
KPD1 100458Z 30006KT M00/M08 A3038 RMK A01 T10021084  RH  054%=      5-min Rain = 0
KPD1 100459Z 30006KT M00/M08 A3038 RMK A01 T10011083  RH  054%=      5-min Rain = 0
KPD1 100500Z 29005KT M00/M08 A3038 RMK A01 T10021084  RH  054%=      5-min Rain = 0
KPD1 100501Z 29006KT M00/M08 A3038 RMK A01 T10031084  RH  054%=      5-min Rain = 0
KPD1 100502Z 29006KT M00/M09 A3038 RMK A01 T10041085  RH  054%=      5-min Rain = 0
KPD1 100503Z 29006KT M01/M09 A3038 RMK A01 T10051085  RH  055%=      5-min Rain = 0
KPD1 100504Z 29006KT M01/M09 A3038 RMK A01 T10051085  RH  055%=      5-min Rain = 0
KPD1 100505Z 29006KT M01/M09 A3038 RMK A01 T10061085  RH  055%=      5-min Rain = 0
KPD1 100506Z 29006KT M01/M08 A3038 RMK A01 T10051084  RH  055%=      5-min Rain = 0
KPD1 100507Z 29006KT M01/M08 A3038 RMK A01 T10051084  RH  055%=      5-min Rain = 0
KPD1 100508Z 29006KT M01/M08 A3038 RMK A01 T10051084  RH  055%=      5-min Rain = 0
KPD1 100509Z 29006KT M01/M08 A3038 RMK A01 T10051084  RH  055%=      5-min Rain = 0
KPD1 100510Z 30006KT M01/M08 A3038 RMK A01 T10051084  RH  055%=      5-min Rain = 0
KPD1 100511Z 30006KT M00/M08 A3038 RMK A01 T10041084  RH  055%=      5-min Rain = 0
KPD1 100512Z 30005KT M00/M08 A3038 RMK A01 T10041084  RH  055%=      5-min Rain = 0
KPD1 100513Z 30005KT M00/M08 A3038 RMK A01 T10031084  RH  055%=      5-min Rain = 0
KPD1 100514Z 30005KT M00/M08 A3038 RMK A01 T10031084  RH  054%=      5-min Rain = 0
KPD1 100515Z 30005KT M00/M08 A3038 RMK A01 T10031084  RH  054%=      5-min Rain = 0
KPD1 100516Z 30005KT M00/M09 A3038 RMK A01 T10041085  RH  054%=      5-min Rain = 0
KPD1 100517Z 30006KT M01/M09 A3038 RMK A01 T10051085  RH  055%=      5-min Rain = 0
KPD1 100518Z 30006KT M01/M09 A3038 RMK A01 T10051085  RH  055%=      5-min Rain = 0
KPD1 100519Z 30006KT M01/M09 A3038 RMK A01 T10051085  RH  055%=      5-min Rain = 0
KPD1 100520Z 30006KT M01/M09 A3038 RMK A01 T10051085  RH  055%=      5-min Rain = 0
KPD1 100521Z 30006KT M01/M09 A3038 RMK A01 T10051085  RH  055%=      5-min Rain = 0
KPD1 100522Z 30007KT M01/M09 A3038 RMK A01 T10061085  RH  055%=      5-min Rain = 0
KPD1 100523Z 30007KT M01/M09 A3038 RMK A01 T10061085  RH  055%=      5-min Rain = 0
KPD1 100524Z 29007KT M01/M09 A3038 RMK A01 T10071085  RH  056%=      5-min Rain = 0
KPD1 100525Z 29007KT M01/M09 A3038 RMK A01 T10081085  RH  056%=      5-min Rain = 0
KPD1 100526Z 29007KT M01/M09 A3038 RMK A01 T10081085  RH  056%=      5-min Rain = 0
KPD1 100527Z 29007KT M01/M09 A3038 RMK A01 T10091085  RH  056%=      5-min Rain = 0
KPD1 100528Z 29006KT M01/M09 A3038 RMK A01 T10091085  RH  057%=      5-min Rain = 0
KPD1 100529Z 29007KT M01/M09 A3038 RMK A01 T10101085  RH  057%=      5-min Rain = 0
KPD1 100530Z 29007KT M01/M08 A3038 RMK A01 T10101084  RH  057%=      5-min Rain = 0
KPD1 100531Z 29007KT M01/M09 A3038 RMK A01 T10101085  RH  057%=      5-min Rain = 0
KPD1 100532Z 29008KT M01/M09 A3038 RMK A01 T10111085  RH  057%=      5-min Rain = 0
KPD1 100533Z 28008KT M01/M08 A3038 RMK A01 T10101084  RH  057%=      5-min Rain = 0
KPD1 100534Z 28008KT M01/M09 A3038 RMK A01 T10101085  RH  057%=      5-min Rain = 0
KPD1 100535Z 28008KT M01/M09 A3038 RMK A01 T10111085  RH  057%=      5-min Rain = 0
KPD1 100536Z 28008KT M01/M09 A3037 RMK A01 T10121085  RH  058%=      5-min Rain = 0
KPD1 100537Z 28008KT M01/M09 A3037 RMK A01 T10131085  RH  058%=      5-min Rain = 0
KPD1 100538Z 28007KT M01/M09 A3037 RMK A01 T10131085  RH  058%=      5-min Rain = 0
KPD1 100539Z 28007KT M01/M08 A3037 RMK A01 T10131084  RH  058%=      5-min Rain = 0
KPD1 100540Z 28007KT M01/M08 A3037 RMK A01 T10131084  RH  058%=      5-min Rain = 0
KPD1 100541Z 28007KT M01/M08 A3037 RMK A01 T10121084  RH  058%=      5-min Rain = 0
KPD1 100542Z 28007KT M01/M08 A3037 RMK A01 T10121084  RH  058%=      5-min Rain = 0
KPD1 100543Z 28006KT M01/M08 A3037 RMK A01 T10111083  RH  058%=      5-min Rain = 0
KPD1 100544Z 28006KT M01/M08 A3037 RMK A01 T10111084  RH  058%=      5-min Rain = 0
KPD1 100545Z 28006KT M01/M08 A3037 RMK A01 T10101083  RH  057%=      5-min Rain = 0
KPD1 100546Z 28006KT M01/M08 A3037 RMK A01 T10091083  RH  057%=      5-min Rain = 0
KPD1 100547Z 28006KT M01/M08 A3037 RMK A01 T10081083  RH  057%=      5-min Rain = 0
KPD1 100548Z 28006KT M01/M08 A3037 RMK A01 T10081083  RH  057%=      5-min Rain = 0
KPD1 100549Z 28006KT M01/M08 A3037 RMK A01 T10071083  RH  056%=      5-min Rain = 0
KPD1 100550Z 28007KT M01/M08 A3037 RMK A01 T10071084  RH  056%=      5-min Rain = 0
KPD1 100551Z 28007KT M01/M08 A3037 RMK A01 T10071084  RH  056%=      5-min Rain = 0
KPD1 100552Z 28007KT M01/M08 A3037 RMK A01 T10071084  RH  056%=      5-min Rain = 0
KPD1 100553Z 28007KT M01/M08 A3037 RMK A01 T10081084  RH  056%=      5-min Rain = 0
KPD1 100554Z 28007KT M01/M08 A3037 RMK A01 T10071084  RH  056%=      5-min Rain = 0
KPD1 100555Z 28008KT M01/M08 A3037 RMK A01 T10071084  RH  056%=      5-min Rain = 0
KPD1 100556Z 27008KT M01/M08 A3037 RMK A01 T10081084  RH  056%=      5-min Rain = 0
KPD1 100557Z 27008KT M01/M09 A3037 RMK A01 T10091085  RH  057%=      5-min Rain = 0
KPD1 100558Z 27008KT M01/M09 A3037 RMK A01 T10101085  RH  057%=      5-min Rain = 0
KPD1 100559Z 27007KT M01/M08 A3037 RMK A01 T10101084  RH  057%=      5-min Rain = 0

Page generated in 0.0322 seconds.